FR5553 / EI-GXJ 7700 Squawk Report (22nd of February, 2019)

Aircraft B738 Reg No. EI-GXJ Age 4 months old
Model 737 Jet engines 2 First flight 26-10-18
Registered 08-11-18 Rollout N/A Delivered 08-11-18
Construction No. 44859 Line No. 7249 Series 800
ADSHEX 4CAFCF Airline name Ryanair Owner N/A
Airfield based Dublin~Co Dublin~EI First tracked 2018-11-14 17:13:00

Flight history for EI-GXJ

Route Flight No Date Playback
Birmingham (BHX) - Dublin (DUB) FR663 2019-03-21 09:08:00
Katowice Airport (KTW) - Birmingham (BHX) FR1254 2019-03-18 22:53:00
Birmingham (BHX) - Katowice Airport (KTW) FR1253 2019-03-18 19:59:00
Gran Canaria (LPA) - Birmingham (BHX) FR1129 2019-03-18 17:49:00
Birmingham (BHX) - Gran Canaria (LPA) FR1128 2019-03-18 10:34:00
Krakow John Paul I (KRK) - Birmingham (BHX) FR1466 2019-03-17 23:16:00
Birmingham (BHX) - Krakow John Paul I (KRK) FR1465 2019-03-17 20:52:00
Dublin (DUB) - Birmingham (BHX) FR664 2019-03-16 12:03:00
Tille (BVA) - Dublin (DUB) FR23 2019-03-16 11:04:00
Dublin (DUB) - Tille (BVA) FR22 2019-03-16 08:51:00
Ciampino (CIA) - Dublin (DUB) FR9435 2019-03-15 23:56:00
Dublin (DUB) - Ciampino (CIA) FR9434 2019-03-15 20:46:00
Bristol (BRS) - Dublin (DUB) FR507 2019-03-15 16:55:00
Dublin (DUB) - Bristol (BRS) FR506 2019-03-15 15:19:00
Glasgow (GLA) - Dublin (DUB) FR5771 2019-03-15 11:18:00
Dublin (DUB) - Glasgow (GLA) FR5772 2019-03-15 10:09:00
Brussels Airport (BRU) - Dublin (DUB) FR1457 2019-03-14 20:59:00
Dublin (DUB) - Brussels Airport (BRU) FR1456 2019-03-14 19:09:00
Sofia (SOF) - Dublin (DUB) FR6015 2019-03-14 16:35:00
Dublin (DUB) - Sofia (SOF) FR6016 2019-03-14 10:46:00
Time Lat Lon Altitude Heading Speed Vertical Rate
2019-02-22 21:53:56 GMT 44.883957 -0.636292 1,000 226 189 -960
2019-02-22 21:53:45 GMT 44.891190 -0.625894 1,200 226 189 -960
2019-02-22 21:53:38 GMT 44.894943 -0.620531 1,300 226 189 -1088
2019-02-22 21:53:28 GMT 44.900749 -0.612153 1,450 226 189 -960
2019-02-22 21:53:18 GMT 44.906803 -0.603511 1,625 226 186 -960
2019-02-22 21:53:08 GMT 44.913116 -0.594439 1,800 226 183 -1024
2019-02-22 21:52:57 GMT 44.919296 -0.585480 1,975 226 181 -832
2019-02-22 21:52:46 GMT 44.925797 -0.576259 2,150 225 181 -1024
2019-02-22 21:52:36 GMT 44.931801 -0.567739 2,325 226 180 -1024
2019-02-22 21:52:26 GMT 44.937836 -0.558995 2,475 226 181 -768
2019-02-22 21:52:15 GMT 44.944061 -0.550036 2,550 226 184 -128
2019-02-22 21:52:04 GMT 44.951019 -0.539965 2,575 226 193 -64
2019-02-22 21:51:54 GMT 44.957245 -0.531137 2,575 225 193 0
2019-02-22 21:51:44 GMT 44.963875 -0.521717 2,575 226 194 0
2019-02-22 21:51:34 GMT 44.970531 -0.512003 2,575 227 194 64
2019-02-22 21:51:22 GMT 44.977238 -0.502290 2,575 226 194 64
2019-02-22 21:51:12 GMT 44.983566 -0.493142 2,550 226 193 64
2019-02-22 21:51:02 GMT 44.990040 -0.483800 2,575 226 193 -512
2019-02-22 21:50:51 GMT 44.996834 -0.474020 2,675 226 192 -512
2019-02-22 21:50:40 GMT 45.003586 -0.464306 2,750 226 191 -448
2019-02-22 21:50:30 GMT 45.009888 -0.455344 2,850 226 192 -448
2019-02-22 21:50:20 GMT 45.016434 -0.445927 2,925 227 193 -512
2019-02-22 21:50:10 GMT 45.023277 -0.435769 3,000 227 195 -512
2019-02-22 21:49:59 GMT 45.029434 -0.426440 3,100 227 196 -448
2019-02-22 21:49:48 GMT 45.036026 -0.416761 3,175 226 197 -384
2019-02-22 21:49:38 GMT 45.042595 -0.407566 3,225 224 195 -384
2019-02-22 21:49:28 GMT 45.049343 -0.398857 3,300 222 190 -448
2019-02-22 21:49:17 GMT 45.056396 -0.390276 3,400 220 188 -512
2019-02-22 21:49:08 GMT 45.063591 -0.382579 3,500 214 188 -896
2019-02-22 21:48:57 GMT 45.071087 -0.376215 3,675 210 188 -704
2019-02-22 21:48:46 GMT 45.079418 -0.369650 3,750 206 194 -384
2019-02-22 21:48:39 GMT 45.085331 -0.367171 3,825 175 192 -832
2019-02-22 21:48:36 GMT 45.088543 -0.367171 3,875 172 192 -768
2019-02-22 21:48:29 GMT 45.094826 -0.369650 4,250 154 192 -1088
2019-02-22 21:48:26 GMT 45.097248 -0.371525 4,050 144 193 -1152
2019-02-22 21:48:20 GMT 45.100754 -0.375628 4,150 131 195 -1152
2019-02-22 21:48:14 GMT 45.103867 -0.381317 4,250 119 197 -1152
2019-02-22 21:48:10 GMT 45.105652 -0.386680 4,350 104 202 -1152
2019-02-22 21:48:05 GMT 45.106842 -0.394527 4,450 95 206 -1152
2019-02-22 21:47:58 GMT 45.106659 -0.402309 4,575 81 213 -1344
2019-02-22 21:47:55 GMT 45.105999 -0.406762 4,650 64 220 -1984
2019-02-22 21:47:52 GMT 45.105164 -0.410112 4,725 69 218 -1728
2019-02-22 21:47:47 GMT 45.102356 -0.417415 4,925 49 224 -2432
2019-02-22 21:47:43 GMT 45.100182 -0.421366 5,075 49 224 -2432
2019-02-22 21:47:35 GMT 45.094162 -0.430756 5,375 47 227 -1728
2019-02-22 21:47:32 GMT 45.092640 -0.433156 5,425 47 228 -1728
2019-02-22 21:47:28 GMT 45.089474 -0.437979 5,575 47 230 -1856
2019-02-22 21:47:23 GMT 45.085190 -0.444946 5,725 53 232 -1344
2019-02-22 21:47:18 GMT 45.082626 -0.450178 5,825 58 233 -1024
2019-02-22 21:47:11 GMT 45.079742 -0.459684 5,925 74 237 -1280
2019-02-22 21:47:06 GMT 45.078781 -0.467442 6,050 83 238 -1280
2019-02-22 21:47:01 GMT 45.079010 -0.477578 6,150 99 243 -1024
2019-02-22 21:46:57 GMT 45.079605 -0.482059 6,200 103 245 -896
2019-02-22 21:46:49 GMT 45.081894 -0.494385 6,300 104 251 -768
2019-02-22 21:46:39 GMT 45.084915 -0.510145 6,425 105 259 -704
2019-02-22 21:46:35 GMT 45.086334 -0.517077 6,475 109 263 -832
2019-02-22 21:46:28 GMT 45.089310 -0.526886 6,575 125 271 -1152
2019-02-22 21:46:25 GMT 45.091614 -0.532167 6,625 127 272 -1152
2019-02-22 21:46:22 GMT 45.094036 -0.536521 6,700 135 275 -1280
2019-02-22 21:46:19 GMT 45.096737 -0.540474 6,750 138 277 -1280
2019-02-22 21:46:14 GMT 45.101257 -0.545589 6,850 146 280 -1344
2019-02-22 21:46:08 GMT 45.108234 -0.550991 7,000 156 285 -1344
2019-02-22 21:46:04 GMT 45.113354 -0.553872 7,075 160 289 -1280
2019-02-22 21:46:01 GMT 45.117359 -0.555814 7,200 160 291 -1344
2019-02-22 21:45:58 GMT 45.121170 -0.557752 7,225 159 292 -1344
2019-02-22 21:45:54 GMT 45.126949 -0.560772 7,325 159 296 -1344
2019-02-22 21:45:48 GMT 45.133930 -0.564389 7,450 159 300 -1344
2019-02-22 21:45:43 GMT 45.140442 -0.567758 7,550 159 303 -1344
2019-02-22 21:45:37 GMT 45.147804 -0.571557 7,675 160 307 -1408
2019-02-22 21:45:32 GMT 45.154648 -0.575040 7,800 160 310 -1472
2019-02-22 21:45:28 GMT 45.161491 -0.578591 7,925 159 315 -1472
2019-02-22 21:45:22 GMT 45.169079 -0.582543 8,075 159 319 -1536
2019-02-22 21:45:17 GMT 45.175873 -0.586068 8,200 159 323 -1600
2019-02-22 21:45:10 GMT 45.185715 -0.591169 8,375 159 327 -1600
2019-02-22 21:45:07 GMT 45.190769 -0.593798 8,475 159 331 -1664
2019-02-22 21:45:01 GMT 45.198219 -0.597683 8,625 159 335 -1728
2019-02-22 21:44:55 GMT 45.206970 -0.602238 8,800 159 340 -1728
2019-02-22 21:44:51 GMT 45.214001 -0.605923 8,925 159 344 -1728
2019-02-22 21:44:47 GMT 45.218674 -0.608433 9,050 159 349 -1728
2019-02-22 21:44:44 GMT 45.223480 -0.610984 9,100 159 350 -1728
2019-02-22 21:44:41 GMT 45.229408 -0.614163 9,225 159 354 -1920
2019-02-22 21:44:34 GMT 45.239502 -0.619747 9,475 158 358 -2496
2019-02-22 21:44:30 GMT 45.246048 -0.623343 9,675 158 360 -3200
2019-02-22 21:44:24 GMT 45.256256 -0.629163 10,050 158 360 -3520
2019-02-22 21:44:19 GMT 45.262043 -0.632384 10,250 158 361 -3328
2019-02-22 21:44:15 GMT 45.268478 -0.636030 10,475 158 363 -3136
2019-02-22 21:44:09 GMT 45.278595 -0.641654 11,050 159 368 -2880
2019-02-22 21:44:02 GMT 45.292580 -0.649332 11,225 158 370 -3200
2019-02-22 21:43:55 GMT 45.301006 -0.653954 11,325 158 370 -3136
2019-02-22 21:43:48 GMT 45.312412 -0.660118 11,825 159 376 -2560
2019-02-22 21:43:43 GMT 45.319977 -0.664150 12,025 159 380 -2560
2019-02-22 21:43:40 GMT 45.325699 -0.667158 12,175 159 382 -2752
2019-02-22 21:43:32 GMT 45.337646 -0.673567 12,525 159 385 -2816
2019-02-22 21:43:29 GMT 45.342728 -0.676248 12,675 159 387 -2944
2019-02-22 21:43:23 GMT 45.353798 -0.682157 13,000 159 390 -3264
2019-02-22 21:43:19 GMT 45.360168 -0.685534 13,225 159 391 -3584
2019-02-22 21:43:15 GMT 45.371113 -0.691469 13,475 159 392 -3648
2019-02-22 21:43:12 GMT 45.371113 -0.691469 13,600 159 392 -3584
2019-02-22 21:43:09 GMT 45.378799 -0.695605 13,875 159 393 -3584
2019-02-22 21:43:01 GMT 45.390106 -0.701651 14,275 159 395 -3520
2019-02-22 21:42:57 GMT 45.397091 -0.705403 14,500 159 396 -3456
2019-02-22 21:42:53 GMT 45.404205 -0.709207 14,750 159 397 -3520
2019-02-22 21:42:50 GMT 45.408588 -0.711566 14,975 159 398 -3712
2019-02-22 21:42:47 GMT 45.414780 -0.714915 15,125 159 398 -3776
2019-02-22 21:42:43 GMT 45.422012 -0.718754 15,375 159 398 -3840
2019-02-22 21:42:40 GMT 45.426697 -0.721279 15,550 159 399 -3840
2019-02-22 21:42:36 GMT 45.434612 -0.725567 15,850 159 400 -3904
2019-02-22 21:42:33 GMT 45.439919 -0.728447 16,050 159 399 -4032
2019-02-22 21:42:30 GMT 45.444294 -0.730792 16,225 159 399 -4032
2019-02-22 21:42:23 GMT 45.456772 -0.737558 16,825 159 400 -4096
2019-02-22 21:42:19 GMT 45.462685 -0.740773 16,950 159 400 -4032
2019-02-22 21:42:12 GMT 45.475533 -0.747740 17,475 159 400 -3840
2019-02-22 21:42:09 GMT 45.480278 -0.750286 17,625 159 400 -3904
2019-02-22 21:42:01 GMT 45.494797 -0.758122 18,200 159 401 -4032
2019-02-22 21:41:58 GMT 45.498669 -0.760267 18,325 159 401 -3968
2019-02-22 21:41:51 GMT 45.512833 -0.767866 18,875 159 401 -4032
2019-02-22 21:41:47 GMT 45.518188 -0.770809 19,075 158 401 -4032
2019-02-22 21:41:43 GMT 45.525375 -0.774732 19,500 158 401 -4096
2019-02-22 21:41:39 GMT 45.531673 -0.778154 19,500 158 401 -4096
2019-02-22 21:41:36 GMT 45.536957 -0.781076 19,825 158 401 -4160
2019-02-22 21:41:30 GMT 45.548447 -0.787331 21,750 159 402 -3648
2019-02-22 21:41:25 GMT 45.555817 -0.791351 20,525 159 402 -3584
2019-02-22 21:41:20 GMT 45.567657 -0.797813 20,900 159 406 -3392
2019-02-22 21:41:15 GMT 45.573338 -0.800835 21,100 159 406 -3392
2019-02-22 21:41:09 GMT 45.586140 -0.807701 21,500 159 409 -3264
2019-02-22 21:41:05 GMT 45.591724 -0.810722 21,675 159 410 -3200
2019-02-22 21:40:58 GMT 45.604248 -0.817520 22,550 159 413 -3200
2019-02-22 21:40:55 GMT 45.610245 -0.820759 22,225 159 415 -3136
2019-02-22 21:40:50 GMT 45.620773 -0.826453 22,550 159 420 -3264
2019-02-22 21:40:47 GMT 45.623383 -0.827860 22,550 159 420 -3264
2019-02-22 21:40:44 GMT 45.629333 -0.831076 22,750 159 420 -3264
2019-02-22 21:40:37 GMT 45.642746 -0.838326 23,125 159 424 -2496
2019-02-22 21:40:33 GMT 45.649567 -0.841995 23,275 159 426 -2432
2019-02-22 21:40:27 GMT 45.660141 -0.847689 23,500 159 429 -2496
2019-02-22 21:40:23 GMT 45.667557 -0.851708 23,675 159 431 -2752
2019-02-22 21:40:17 GMT 45.681610 -0.859278 24,025 159 432 -2688
2019-02-22 21:40:13 GMT 45.687057 -0.862226 24,150 159 432 -2688
2019-02-22 21:40:06 GMT 45.699234 -0.868791 24,450 159 435 -2688
2019-02-22 21:40:02 GMT 45.707153 -0.873078 24,625 159 436 -2496
2019-02-22 21:39:54 GMT 45.721886 -0.881035 24,950 159 438 -2496
2019-02-22 21:39:51 GMT 45.727798 -0.884265 25,100 159 439 -2560
2019-02-22 21:39:44 GMT 45.741299 -0.891541 25,400 159 441 -2688
2019-02-22 21:39:41 GMT 45.746887 -0.894515 25,525 159 442 -2624
2019-02-22 21:39:34 GMT 45.760941 -0.902353 25,850 157 443 -2688
2019-02-22 21:39:31 GMT 45.766483 -0.905685 26,000 156 443 -2688
2019-02-22 21:39:23 GMT 45.781036 -0.915349 26,325 154 445 -2496
2019-02-22 21:39:20 GMT 45.786118 -0.919033 26,450 152 446 -2496
2019-02-22 21:39:10 GMT 45.804794 -0.933972 26,850 149 449 -2368
2019-02-22 21:39:03 GMT 45.816994 -0.944275 27,125 149 452 -2432
2019-02-22 21:38:59 GMT 45.823746 -0.949982 27,275 149 454 -2496
2019-02-22 21:38:48 GMT 45.843620 -0.966866 27,700 149 459 -2048
2019-02-22 21:38:40 GMT 45.860703 -0.981491 28,075 149 462 -2944
2019-02-22 21:38:29 GMT 45.879230 -0.997353 28,575 149 465 -3008
2019-02-22 21:38:25 GMT 45.886307 -1.003395 28,775 149 466 -3200
2019-02-22 21:38:18 GMT 45.899094 -1.014360 29,175 149 466 -3584
2019-02-22 21:38:15 GMT 45.904816 -1.019317 29,350 149 465 -3648
2019-02-22 21:38:09 GMT 45.917175 -1.029901 29,775 149 464 -4032
2019-02-22 21:38:06 GMT 45.920929 -1.033117 29,925 149 464 -4096
2019-02-22 21:38:02 GMT 45.928532 -1.039719 30,200 149 462 -4032
2019-02-22 21:37:56 GMT 45.942673 -1.051874 30,700 149 460 -4032
2019-02-22 21:37:48 GMT 45.956543 -1.063731 31,225 149 457 -3968
2019-02-22 21:37:45 GMT 45.961258 -1.067818 31,400 149 456 -3968
2019-02-22 21:37:42 GMT 45.965912 -1.071785 31,925 149 455 -3776
2019-02-22 21:37:36 GMT 45.976135 -1.080546 31,925 149 454 -3712
2019-02-22 21:37:32 GMT 45.984440 -1.087715 32,200 149 452 -3776
2019-02-22 21:37:27 GMT 45.992203 -1.094345 32,475 149 452 -3776
2019-02-22 21:37:24 GMT 45.998474 -1.099705 32,925 149 449 -3648
2019-02-22 21:37:21 GMT 46.005661 -1.105868 32,925 149 444 -2368
2019-02-22 21:37:16 GMT 46.013031 -1.112098 33,175 149 447 -3584
2019-02-22 21:37:13 GMT 46.017883 -1.116318 33,350 149 447 -3456
2019-02-22 21:37:10 GMT 46.022781 -1.120471 33,700 149 446 -3392
2019-02-22 21:37:02 GMT 46.036625 -1.132347 33,950 149 444 -3392
2019-02-22 21:36:56 GMT 46.046822 -1.141068 34,250 149 443 -2944
2019-02-22 21:36:51 GMT 46.055851 -1.148827 34,475 149 444 -2496
2019-02-22 21:36:48 GMT 46.061096 -1.153296 34,925 148 450 0
2019-02-22 21:36:44 GMT 46.069118 -1.160225 34,750 148 445 -2112
2019-02-22 21:36:41 GMT 46.073818 -1.164276 34,850 148 447 -1920
2019-02-22 21:36:37 GMT 46.081284 -1.170781 34,950 148 449 -512
2019-02-22 21:36:29 GMT 46.094513 -1.182236 35,000 148 450 0
2019-02-22 21:36:26 GMT 46.101013 -1.187930 35,000 148 450 64
2019-02-22 21:36:21 GMT 46.111771 -1.197309 35,000 148 450 -64
2019-02-22 21:36:15 GMT 46.119415 -1.204008 35,000 148 451 -448
2019-02-22 21:36:09 GMT 46.130569 -1.213715 35,175 148 452 -1024
2019-02-22 21:36:04 GMT 46.140427 -1.222363 35,175 148 453 -1024
2019-02-22 21:35:59 GMT 46.149048 -1.229782 35,325 149 454 -960
2019-02-22 21:35:54 GMT 46.158314 -1.237816 35,325 149 455 -960
2019-02-22 21:35:49 GMT 46.167763 -1.245918 35,425 149 457 -960
2019-02-22 21:35:46 GMT 46.173210 -1.250587 35,425 149 458 -960
2019-02-22 21:35:43 GMT 46.177963 -1.254585 35,500 149 458 -960
2019-02-22 21:35:38 GMT 46.186432 -1.261619 35,550 150 459 -1024
2019-02-22 21:35:35 GMT 46.193069 -1.266978 35,625 151 461 -896
2019-02-22 21:35:29 GMT 46.203049 -1.274883 35,700 150 461 -1024
2019-02-22 21:35:25 GMT 46.210648 -1.281113 35,750 150 461 -1024
2019-02-22 21:35:22 GMT 46.216644 -1.286606 35,825 145 459 -960
2019-02-22 21:35:17 GMT 46.225254 -1.295631 35,900 141 459 -960
2019-02-22 21:35:14 GMT 46.230698 -1.302081 35,950 137 458 -960
2019-02-22 21:35:11 GMT 46.234100 -1.306480 36,000 135 458 -960
2019-02-22 21:35:04 GMT 46.245941 -1.324455 36,125 129 456 -960
2019-02-22 21:35:01 GMT 46.249138 -1.330170 36,200 95 444 -896
2019-02-22 21:34:55 GMT 46.257793 -1.348709 36,275 118 452 -960
2019-02-22 21:34:51 GMT 46.260773 -1.356537 36,575 95 444 -896
2019-02-22 21:34:44 GMT 46.266083 -1.375214 36,650 106 448 -896
2019-02-22 21:34:39 GMT 46.268456 -1.388397 36,575 95 444 -896
2019-02-22 21:34:34 GMT 46.269993 -1.405289 36,650 84 440 -832
2019-02-22 21:34:28 GMT 46.269974 -1.420720 36,650 87 440 -832
2019-02-22 21:34:22 GMT 46.268188 -1.438874 36,750 75 436 -832
2019-02-22 21:34:18 GMT 46.266220 -1.449391 36,800 70 434 -832
2019-02-22 21:34:12 GMT 46.261055 -1.467361 36,900 60 431 -768
2019-02-22 21:34:09 GMT 46.258255 -1.474580 36,925 59 430 -768
2019-02-22 21:34:00 GMT 46.243744 -1.504859 37,075 53 426 -832
2019-02-22 21:33:56 GMT 46.243744 -1.504859 37,100 49 422 -896
2019-02-22 21:33:50 GMT 46.236374 -1.518056 37,200 49 422 -896
2019-02-22 21:33:40 GMT 46.219162 -1.544651 37,400 43 417 -1024
2019-02-22 21:33:29 GMT 46.209103 -1.558342 37,525 42 416 -1088
2019-02-22 21:33:26 GMT 46.204212 -1.564865 37,575 42 415 -1088
2019-02-22 21:33:19 GMT 46.193985 -1.578548 37,750 42 416 -1216
2019-02-22 21:33:16 GMT 46.190479 -1.583267 37,775 42 416 -1216
2019-02-22 21:33:08 GMT 46.178238 -1.599583 37,950 42 417 -640
2019-02-22 21:33:05 GMT 46.174606 -1.604485 37,950 42 417 -640
2019-02-22 21:32:56 GMT 46.161896 -1.621513 38,000 42 417 0
2019-02-22 21:32:50 GMT 46.152821 -1.633598 38,000 42 418 0
2019-02-22 21:32:44 GMT 46.144821 -1.644332 38,000 42 418 0
2019-02-22 21:32:41 GMT 46.141068 -1.649356 38,000 42 418 0
2019-02-22 21:32:34 GMT 46.129684 -1.664566 38,000 42 418 0
2019-02-22 21:32:30 GMT 46.123539 -1.672806 38,000 42 418 0
2019-02-22 21:32:23 GMT 46.114555 -1.684822 38,000 42 418 0
2019-02-22 21:32:18 GMT 46.107788 -1.693837 38,000 42 419 0
2019-02-22 21:32:14 GMT 46.101753 -1.701851 38,000 42 419 0
2019-02-22 21:32:11 GMT 46.097992 -1.706900 38,000 42 419 0
2019-02-22 21:32:08 GMT 46.093597 -1.712728 38,000 42 420 0
2019-02-22 21:32:03 GMT 46.087135 -1.721352 38,000 42 420 0
2019-02-22 21:32:00 GMT 46.080803 -1.729797 38,000 42 420 0
2019-02-22 21:31:51 GMT 46.070023 -1.744147 38,000 42 421 0
2019-02-22 21:31:47 GMT 46.061874 -1.754932 38,000 42 421 0
2019-02-22 21:31:42 GMT 46.054962 -1.764110 38,000 42 421 0
2019-02-22 21:31:36 GMT 46.048077 -1.773262 38,000 42 421 0
2019-02-22 21:31:30 GMT 46.039993 -1.784073 38,000 42 421 0
2019-02-22 21:31:26 GMT 46.034271 -1.791709 38,000 42 421 64
2019-02-22 21:31:19 GMT 46.024384 -1.804779 38,000 42 421 0
2019-02-22 21:31:08 GMT 46.008682 -1.825673 38,000 42 421 0
2019-02-22 21:31:04 GMT 46.002319 -1.834114 38,000 42 421 0
2019-02-22 21:30:59 GMT 45.995682 -1.842890 38,000 42 420 0
2019-02-22 21:30:56 GMT 45.991425 -1.848587 38,000 42 419 0
2019-02-22 21:30:47 GMT 45.977966 -1.866403 38,000 42 418 0
2019-02-22 21:30:39 GMT 45.966934 -1.880940 38,000 42 418 0
2019-02-22 21:30:32 GMT 45.956543 -1.894740 38,000 42 418 0
2019-02-22 21:30:28 GMT 45.951900 -1.900841 38,000 42 418 0
2019-02-22 21:30:25 GMT 45.947021 -1.907267 38,000 42 418 0
2019-02-22 21:30:18 GMT 45.936119 -1.921783 38,000 42 418 0
2019-02-22 21:30:15 GMT 45.932629 -1.926384 38,000 42 418 0
2019-02-22 21:30:06 GMT 45.920059 -1.943039 38,000 42 417 0
2019-02-22 21:29:56 GMT 45.905869 -1.961796 38,000 42 417 0
2019-02-22 21:29:46 GMT 45.891380 -1.980904 38,000 42 417 0
2019-02-22 21:29:39 GMT 45.881149 -1.994420 38,000 42 417 0
2019-02-22 21:29:33 GMT 45.872993 -2.005142 38,000 42 418 0
2019-02-22 21:29:25 GMT 45.861217 -2.020660 38,000 42 419 0
2019-02-22 21:29:22 GMT 45.857586 -2.025330 38,000 42 419 0
2019-02-22 21:29:15 GMT 45.847855 -2.038101 38,000 42 419 0
2019-02-22 21:29:12 GMT 45.842876 -2.044693 38,000 42 419 0
2019-02-22 21:29:04 GMT 45.831188 -2.060005 38,000 42 419 0
2019-02-22 21:28:54 GMT 45.816200 -2.079781 38,000 42 420 0
2019-02-22 21:28:43 GMT 45.802185 -2.098188 38,000 42 421 0
2019-02-22 21:28:40 GMT 45.798294 -2.103346 38,000 42 421 0
2019-02-22 21:28:33 GMT 45.786530 -2.118888 38,000 42 421 0
2019-02-22 21:28:30 GMT 45.783188 -2.123242 38,000 42 421 0
2019-02-22 21:28:22 GMT 45.767670 -2.143741 38,000 42 422 0
2019-02-22 21:28:12 GMT 45.757030 -2.157715 38,000 42 422 0
2019-02-22 21:28:09 GMT 45.748375 -2.169044 38,000 42 423 0
2019-02-22 21:28:00 GMT 45.740601 -2.179276 38,000 42 423 0
2019-02-22 21:27:54 GMT 45.730919 -2.191978 38,000 42 423 0
2019-02-22 21:27:51 GMT 45.727379 -2.196648 38,000 42 424 0
2019-02-22 21:27:48 GMT 45.722397 -2.203171 38,000 42 424 -64
2019-02-22 21:27:40 GMT 45.711182 -2.217965 38,000 42 425 0
2019-02-22 21:27:29 GMT 45.695480 -2.238464 38,000 42 426 0
2019-02-22 21:27:24 GMT 45.688568 -2.247575 38,000 42 426 0
2019-02-22 21:27:18 GMT 45.679104 -2.259956 38,000 42 426 0
2019-02-22 21:27:09 GMT 45.666676 -2.276230 38,000 42 429 0
2019-02-22 21:27:05 GMT 45.660507 -2.284218 38,000 42 427 0
2019-02-22 21:26:58 GMT 45.649918 -2.297997 38,000 42 428 0
2019-02-22 21:26:48 GMT 45.635056 -2.317311 38,000 42 428 0
2019-02-22 21:26:36 GMT 45.618355 -2.338989 38,000 42 429 0
2019-02-22 21:26:28 GMT 45.605621 -2.355496 38,000 42 429 0
2019-02-22 21:26:15 GMT 45.587582 -2.378815 38,000 42 430 0
2019-02-22 21:26:05 GMT 45.572525 -2.398235 38,000 42 430 64
2019-02-22 21:25:59 GMT 45.562492 -2.411087 38,000 42 431 0
2019-02-22 21:25:55 GMT 45.557182 -2.418022 38,000 42 431 0
2019-02-22 21:25:52 GMT 45.551971 -2.424683 38,000 42 433 0
2019-02-22 21:25:48 GMT 45.547073 -2.430993 38,000 42 431 0
2019-02-22 21:25:42 GMT 45.538891 -2.441577 38,000 42 431 0
2019-02-22 21:25:38 GMT 45.532333 -2.450082 38,000 42 431 0
2019-02-22 21:25:33 GMT 45.525650 -2.458714 38,000 42 432 0
2019-02-22 21:25:27 GMT 45.516544 -2.470584 38,000 42 433 0
2019-02-22 21:25:22 GMT 45.507046 -2.482910 38,000 42 433 0
2019-02-22 21:25:17 GMT 45.501389 -2.490234 38,000 42 433 0
2019-02-22 21:25:11 GMT 45.492371 -2.501875 38,000 42 433 0
2019-02-22 21:25:06 GMT 45.485634 -2.510711 38,000 42 433 0
2019-02-22 21:25:01 GMT 45.477253 -2.521496 38,000 42 433 0
2019-02-22 21:24:55 GMT 45.468826 -2.532416 38,000 42 433 64
2019-02-22 21:24:52 GMT 45.455139 -2.550034 38,000 42 433 0
2019-02-22 21:24:46 GMT 45.455139 -2.550034 38,000 42 433 0
2019-02-22 21:24:41 GMT 45.448105 -2.559095 38,000 42 433 0
2019-02-22 21:24:36 GMT 45.440369 -2.569101 38,000 42 433 0
2019-02-22 21:24:30 GMT 45.432468 -2.579375 38,000 42 433 0
2019-02-22 21:24:25 GMT 45.424183 -2.590094 38,000 42 433 0
2019-02-22 21:24:19 GMT 45.416336 -2.600359 38,000 42 433 0
2019-02-22 21:24:13 GMT 45.406952 -2.612523 38,000 42 433 0
2019-02-22 21:24:09 GMT 45.400818 -2.620435 38,000 42 434 0
2019-02-22 21:24:05 GMT 45.394810 -2.628211 38,000 42 433 0
2019-02-22 21:23:58 GMT 45.384567 -2.641493 38,000 42 433 0
2019-02-22 21:23:51 GMT 45.373627 -2.655610 38,000 42 434 0
2019-02-22 21:23:48 GMT 45.369019 -2.661505 38,000 42 434 0
2019-02-22 21:23:42 GMT 45.361359 -2.671378 38,000 42 434 0
2019-02-22 21:23:39 GMT 45.355331 -2.679056 38,000 42 434 0
2019-02-22 21:23:35 GMT 45.350307 -2.685621 38,000 42 434 0
2019-02-22 21:23:30 GMT 45.342392 -2.695737 38,000 42 433 0
2019-02-22 21:23:25 GMT 45.335781 -2.704244 38,000 42 433 -64
2019-02-22 21:23:14 GMT 45.319630 -2.725078 38,000 42 433 64
2019-02-22 21:23:04 GMT 45.304779 -2.744162 38,000 42 433 0
2019-02-22 21:22:53 GMT 45.288670 -2.764870 38,000 42 433 0
2019-02-22 21:22:44 GMT 45.274330 -2.783292 38,000 42 433 -64
2019-02-22 21:22:33 GMT 45.258968 -2.803054 38,000 42 433 -64
2019-02-22 21:22:23 GMT 45.243713 -2.822636 38,000 42 433 0
2019-02-22 21:22:13 GMT 45.228149 -2.842647 38,000 42 433 0
2019-02-22 21:22:01 GMT 45.211067 -2.864484 38,000 42 432 0
2019-02-22 21:21:51 GMT 45.196655 -2.882996 38,000 42 432 0
2019-02-22 21:21:40 GMT 45.179646 -2.904745 38,000 42 432 0
2019-02-22 21:21:30 GMT 45.165573 -2.922690 38,000 42 432 0
2019-02-22 21:21:20 GMT 45.150223 -2.942326 38,000 42 432 0
2019-02-22 21:21:08 GMT 45.131836 -2.965840 38,000 42 432 0
2019-02-22 21:20:59 GMT 45.119751 -2.981284 38,000 42 432 0
2019-02-22 21:20:49 GMT 45.103683 -3.001753 38,000 42 432 0
2019-02-22 21:20:35 GMT 45.084274 -3.026472 38,000 41 431 0
2019-02-22 21:20:28 GMT 45.072853 -3.041002 38,000 41 431 0
2019-02-22 21:20:17 GMT 45.056606 -3.061501 38,000 42 431 0
2019-02-22 21:20:07 GMT 45.041748 -3.080423 38,000 42 431 0
2019-02-22 21:19:57 GMT 45.026962 -3.099256 38,000 42 431 0
2019-02-22 21:19:45 GMT 45.009636 -3.121323 38,000 42 431 0
2019-02-22 21:19:36 GMT 44.995483 -3.139276 38,000 42 431 0
2019-02-22 21:19:25 GMT 44.980453 -3.158373 38,000 41 431 64
2019-02-22 21:19:15 GMT 44.964706 -3.178319 38,000 41 430 0
2019-02-22 21:19:02 GMT 44.945625 -3.202247 38,000 41 430 0
2019-02-22 21:18:53 GMT 44.932964 -3.218190 38,000 41 430 0
2019-02-22 21:18:43 GMT 44.917603 -3.237483 38,000 41 430 0
2019-02-22 21:18:32 GMT 44.901260 -3.258035 38,000 41 430 0
2019-02-22 21:18:20 GMT 44.883408 -3.280465 38,000 41 430 0
2019-02-22 21:18:11 GMT 44.870026 -3.297305 38,000 41 430 0
2019-02-22 21:18:00 GMT 44.853287 -3.318198 38,000 41 430 0
2019-02-22 21:17:46 GMT 44.832691 -3.343997 38,000 41 430 0
2019-02-22 21:17:39 GMT 44.822727 -3.356457 38,000 41 430 0
2019-02-22 21:17:28 GMT 44.806778 -3.376399 38,000 41 430 0
2019-02-22 21:17:18 GMT 44.790794 -3.396316 38,000 41 430 0
2019-02-22 21:17:07 GMT 44.775558 -3.415309 38,000 41 431 0
2019-02-22 21:16:57 GMT 44.759537 -3.435320 38,000 41 431 0
2019-02-22 21:16:46 GMT 44.743591 -3.455267 38,000 41 432 0
2019-02-22 21:16:36 GMT 44.727997 -3.474761 38,000 41 432 0
2019-02-22 21:16:25 GMT 44.712074 -3.494523 38,000 41 432 0
2019-02-22 21:16:14 GMT 44.695782 -3.514888 38,000 41 432 0
2019-02-22 21:16:04 GMT 44.680893 -3.533412 38,000 41 433 0
2019-02-22 21:15:53 GMT 44.664597 -3.553750 38,000 41 433 0
2019-02-22 21:15:38 GMT 44.641846 -3.582001 38,000 41 432 0
2019-02-22 21:15:31 GMT 44.630722 -3.595734 38,000 41 433 0
2019-02-22 21:15:18 GMT 44.612640 -3.618119 38,000 41 433 0
2019-02-22 21:15:10 GMT 44.599838 -3.633929 38,000 41 433 0
2019-02-22 21:14:58 GMT 44.581589 -3.656505 38,000 41 433 0
2019-02-22 21:14:48 GMT 44.567345 -3.674123 38,000 41 434 0
2019-02-22 21:14:38 GMT 44.552166 -3.692947 38,000 41 434 0
2019-02-22 21:14:25 GMT 44.532715 -3.716976 38,000 41 433 0
2019-02-22 21:14:16 GMT 44.518936 -3.733978 38,000 41 434 0
2019-02-22 21:14:04 GMT 44.500992 -3.756082 38,000 41 434 -64
2019-02-22 21:13:55 GMT 44.487740 -3.772397 38,000 41 434 0
2019-02-22 21:13:45 GMT 44.471447 -3.792494 38,000 41 434 0
2019-02-22 21:13:34 GMT 44.454849 -3.812779 38,000 41 435 0
2019-02-22 21:13:24 GMT 44.439743 -3.831351 38,000 41 435 0
2019-02-22 21:13:10 GMT 44.418842 -3.856938 38,000 41 434 0
2019-02-22 21:13:02 GMT 44.407745 -3.870653 38,000 41 434 0
2019-02-22 21:12:56 GMT 44.398727 -3.881705 38,000 41 435 0
2019-02-22 21:12:51 GMT 44.390579 -3.891711 38,000 41 435 0
2019-02-22 21:12:41 GMT 44.375336 -3.910348 38,000 41 435 0
2019-02-22 21:12:27 GMT 44.354050 -3.936310 38,000 41 435 -64
2019-02-22 21:12:21 GMT 44.343800 -3.948915 38,000 41 435 0
2019-02-22 21:12:05 GMT 44.320942 -3.976381 38,000 37 435 0
2019-02-22 21:11:57 GMT 44.307907 -3.990195 38,000 35 435 0
2019-02-22 21:11:47 GMT 44.291245 -4.005955 38,000 31 436 0
2019-02-22 21:11:36 GMT 44.272015 -4.021599 38,000 28 435 0
2019-02-22 21:11:20 GMT 44.243294 -4.040490 38,000 24 435 0
2019-02-22 21:11:13 GMT 44.229050 -4.049333 38,000 24 435 0
2019-02-22 21:11:04 GMT 44.213825 -4.058845 38,000 24 435 0
2019-02-22 21:10:56 GMT 44.199646 -4.067623 38,000 23 435 0
2019-02-22 21:10:53 GMT 44.193111 -4.071677 38,000 23 435 0
2019-02-22 21:10:45 GMT 44.179237 -4.080178 38,000 23 435 0
2019-02-22 21:10:35 GMT 44.160618 -4.091688 38,000 23 435 0
2019-02-22 21:10:29 GMT 44.150284 -4.098097 38,000 23 435 0
2019-02-22 21:10:25 GMT 44.141808 -4.103328 38,000 23 435 0
2019-02-22 21:10:20 GMT 44.133663 -4.108364 38,000 23 435 0
2019-02-22 21:10:15 GMT 44.121689 -4.115721 38,000 23 436 0
2019-02-22 21:10:08 GMT 44.111160 -4.122236 38,000 23 436 0
2019-02-22 21:10:03 GMT 44.101685 -4.128049 38,000 23 436 0
2019-02-22 21:09:58 GMT 44.092838 -4.133475 38,000 23 436 0
2019-02-22 21:09:51 GMT 44.079391 -4.141718 38,000 23 436 0
2019-02-22 21:09:47 GMT 44.072937 -4.145678 38,000 23 436 -64
2019-02-22 21:09:40 GMT 44.060074 -4.153599 38,000 23 436 0
2019-02-22 21:09:36 GMT 44.052658 -4.158134 38,000 23 436 0
2019-02-22 21:09:31 GMT 44.042084 -4.164649 38,000 23 436 0
2019-02-22 21:09:25 GMT 44.032131 -4.170750 38,000 23 436 0
2019-02-22 21:09:20 GMT 44.021145 -4.177551 38,000 23 436 0
2019-02-22 21:09:09 GMT 44.001709 -4.189432 38,000 23 436 0
2019-02-22 21:08:59 GMT 43.982712 -4.201121 38,000 23 436 0
2019-02-22 21:08:55 GMT 43.977016 -4.204625 38,000 23 436 0
2019-02-22 21:08:48 GMT 43.963051 -4.213126 38,000 23 436 0
2019-02-22 21:08:37 GMT 43.941727 -4.226205 38,000 23 436 0
2019-02-22 21:08:26 GMT 43.922409 -4.237976 38,000 23 436 0
2019-02-22 21:08:21 GMT 43.913052 -4.243731 38,000 23 436 0
2019-02-22 21:08:14 GMT 43.900909 -4.251198 38,000 23 436 0
2019-02-22 21:08:11 GMT 43.894382 -4.255175 38,000 23 436 0
2019-02-22 21:08:03 GMT 43.881165 -4.263218 38,000 23 436 0
2019-02-22 21:07:53 GMT 43.861565 -4.275186 38,000 23 436 0
2019-02-22 21:07:50 GMT 43.856770 -4.278063 38,000 23 436 0
2019-02-22 21:07:41 GMT 43.838516 -4.289203 38,000 23 435 64
2019-02-22 21:07:38 GMT 43.833633 -4.292123 38,000 23 435 64
2019-02-22 21:07:32 GMT 43.822227 -4.299055 38,000 23 435 0
2019-02-22 21:07:28 GMT 43.816315 -4.302680 38,000 23 436 -64
2019-02-22 21:07:20 GMT 43.800888 -4.312006 38,000 23 436 0
2019-02-22 21:07:15 GMT 43.792015 -4.317431 38,000 23 436 0
2019-02-22 21:07:08 GMT 43.778366 -4.325739 38,000 23 435 0
2019-02-22 21:07:00 GMT 43.763386 -4.334826 38,000 23 435 0
2019-02-22 21:06:54 GMT 43.753738 -4.340685 38,000 23 435 0
2019-02-22 21:06:49 GMT 43.744125 -4.346562 38,000 23 434 0
2019-02-22 21:06:45 GMT 43.736206 -4.351352 38,000 23 434 0
2019-02-22 21:06:39 GMT 43.724716 -4.358315 38,000 23 434 0
2019-02-22 21:06:35 GMT 43.718307 -4.362211 38,000 23 434 0
2019-02-22 21:06:28 GMT 43.704483 -4.370578 38,000 23 434 0
2019-02-22 21:06:24 GMT 43.695831 -4.375816 38,000 23 434 0
2019-02-22 21:06:16 GMT 43.683830 -4.383153 38,000 23 434 0
2019-02-22 21:06:13 GMT 43.677124 -4.387207 38,000 23 434 0
2019-02-22 21:06:06 GMT 43.665581 -4.394204 38,000 23 434 0
2019-02-22 21:06:03 GMT 43.658459 -4.398520 38,000 23 434 0
2019-02-22 21:06:00 GMT 43.653709 -4.401398 38,000 23 434 0
2019-02-22 21:05:56 GMT 43.645702 -4.406302 38,000 23 434 0
2019-02-22 21:05:52 GMT 43.638302 -4.410749 38,000 23 434 0
2019-02-22 21:05:45 GMT 43.627083 -4.417616 38,000 23 434 0
2019-02-22 21:05:41 GMT 43.618935 -4.422520 38,000 23 434 0
2019-02-22 21:05:35 GMT 43.607670 -4.429321 38,000 23 434 0
2019-02-22 21:05:32 GMT 43.600315 -4.433768 38,000 23 434 0
2019-02-22 21:05:24 GMT 43.587387 -4.441606 38,000 23 434 0
2019-02-22 21:05:21 GMT 43.581528 -4.445119 38,000 23 434 0
2019-02-22 21:05:14 GMT 43.569031 -4.452667 38,000 23 434 0
2019-02-22 21:05:11 GMT 43.562000 -4.456918 38,000 23 434 0
2019-02-22 21:05:07 GMT 43.556122 -4.460449 38,000 23 434 0
2019-02-22 21:05:00 GMT 43.543167 -4.468242 38,000 23 434 0
2019-02-22 21:04:53 GMT 43.530167 -4.476098 38,000 23 434 0
2019-02-22 21:04:48 GMT 43.521606 -4.481272 38,000 23 434 0
2019-02-22 21:04:40 GMT 43.504974 -4.491250 38,000 23 434 0
2019-02-22 21:04:32 GMT 43.491241 -4.499555 38,000 23 434 0
2019-02-22 21:04:29 GMT 43.467636 -4.513720 38,000 23 434 0
2019-02-22 21:04:19 GMT 43.467636 -4.513720 38,000 23 434 0
2019-02-22 21:04:08 GMT 43.447998 -4.525473 38,000 23 435 0
2019-02-22 21:04:03 GMT 43.439243 -4.530683 38,000 23 435 0
2019-02-22 21:03:58 GMT 43.428955 -4.536896 38,000 23 435 0
2019-02-22 21:03:48 GMT 43.410095 -4.548212 38,000 23 435 0
2019-02-22 21:03:38 GMT 43.390083 -4.560242 38,000 23 435 0
2019-02-22 21:03:27 GMT 43.372162 -4.570966 38,000 23 435 0
2019-02-22 21:03:17 GMT 43.351364 -4.583471 38,000 23 435 0
2019-02-22 21:03:09 GMT 43.339108 -4.590846 38,000 23 435 0
2019-02-22 21:03:06 GMT 43.332638 -4.594705 38,000 23 435 0
2019-02-22 21:02:56 GMT 43.313923 -4.605953 38,000 23 435 0
2019-02-22 21:02:48 GMT 43.297440 -4.615791 38,000 23 436 0
2019-02-22 21:02:45 GMT 43.293629 -4.618051 38,000 23 436 0
2019-02-22 21:02:34 GMT 43.275238 -4.629013 38,000 23 436 0
2019-02-22 21:02:25 GMT 43.256012 -4.640510 38,000 23 436 0
2019-02-22 21:02:14 GMT 43.236786 -4.651925 38,000 23 436 0
2019-02-22 21:02:04 GMT 43.218121 -4.663042 38,000 23 437 0
2019-02-22 21:01:52 GMT 43.197418 -4.675449 38,000 23 437 0
2019-02-22 21:01:43 GMT 43.179623 -4.685996 38,000 23 437 0
2019-02-22 21:01:32 GMT 43.158951 -4.698290 38,000 23 437 0
2019-02-22 21:01:21 GMT 43.139603 -4.709749 38,000 23 438 0
2019-02-22 21:01:11 GMT 43.120453 -4.721113 38,000 23 438 0
2019-02-22 21:01:00 GMT 43.100143 -4.733127 38,000 23 438 0
2019-02-22 21:00:56 GMT 43.091404 -4.738246 38,000 23 438 0
2019-02-22 21:00:51 GMT 43.083305 -4.743086 38,000 23 438 0
2019-02-22 21:00:45 GMT 43.072357 -4.749543 38,000 23 438 0
2019-02-22 21:00:41 GMT 43.064079 -4.754464 38,000 23 438 0
2019-02-22 21:00:38 GMT 43.056702 -4.758869 38,000 23 438 0
2019-02-22 21:00:31 GMT 43.045643 -4.765451 38,000 23 439 0
2019-02-22 21:00:28 GMT 43.040615 -4.768459 38,000 23 439 0
2019-02-22 21:00:20 GMT 43.025303 -4.777483 38,000 23 439 0
2019-02-22 21:00:17 GMT 43.019386 -4.781015 38,000 23 439 0
2019-02-22 21:00:10 GMT 43.006897 -4.788442 38,000 23 439 0
2019-02-22 21:00:06 GMT 43.000397 -4.792275 38,000 23 439 0
2019-02-22 20:59:59 GMT 42.987129 -4.800110 38,000 23 440 0
2019-02-22 20:59:56 GMT 42.981636 -4.803380 38,000 23 440 0
2019-02-22 20:59:50 GMT 42.968170 -4.811309 38,000 23 440 0
2019-02-22 20:59:45 GMT 42.960777 -4.815674 38,000 23 440 0
2019-02-22 20:59:36 GMT 42.943222 -4.826064 38,000 23 440 0
2019-02-22 20:59:29 GMT 42.929398 -4.834240 38,000 23 440 0
2019-02-22 20:59:25 GMT 42.922943 -4.838008 38,000 23 440 0
2019-02-22 20:59:19 GMT 42.910721 -4.845226 38,000 23 441 0
2019-02-22 20:59:14 GMT 42.903286 -4.849614 38,000 23 440 0
2019-02-22 20:59:08 GMT 42.890251 -4.857330 38,000 23 441 0
2019-02-22 20:59:04 GMT 42.883270 -4.861385 38,000 23 441 0
2019-02-22 20:58:56 GMT 42.869247 -4.869690 38,000 23 441 0
2019-02-22 20:58:53 GMT 42.864231 -4.872633 38,000 23 441 0
2019-02-22 20:58:48 GMT 42.851074 -4.880357 38,000 23 441 0
2019-02-22 20:58:44 GMT 42.844711 -4.884125 38,000 23 441 0
2019-02-22 20:58:37 GMT 42.832718 -4.891152 38,000 23 441 0
2019-02-22 20:58:32 GMT 42.823078 -4.896894 38,000 23 441 0
2019-02-22 20:58:26 GMT 42.812370 -4.903172 38,000 23 442 0
2019-02-22 20:58:22 GMT 42.805756 -4.907081 38,000 23 442 0
2019-02-22 20:58:16 GMT 42.793007 -4.914593 38,000 23 442 0
2019-02-22 20:58:12 GMT 42.786442 -4.918426 38,000 23 442 0
2019-02-22 20:58:06 GMT 42.774662 -4.925324 38,000 23 442 0
2019-02-22 20:58:02 GMT 42.765633 -4.930626 38,000 23 442 0
2019-02-22 20:57:55 GMT 42.754990 -4.936919 38,000 23 442 0
2019-02-22 20:57:50 GMT 42.745850 -4.942251 38,000 23 442 0
2019-02-22 20:57:45 GMT 42.735077 -4.948592 38,000 23 443 0
2019-02-22 20:57:40 GMT 42.726017 -4.953876 38,000 23 442 0
2019-02-22 20:57:35 GMT 42.715870 -4.959880 38,000 23 443 0
2019-02-22 20:57:29 GMT 42.706467 -4.965383 38,000 23 443 0
2019-02-22 20:57:24 GMT 42.696129 -4.971441 38,000 23 443 0
2019-02-22 20:57:17 GMT 42.684036 -4.978617 38,000 23 443 0
2019-02-22 20:57:14 GMT 42.677368 -4.982747 38,000 25 443 0
2019-02-22 20:57:04 GMT 42.658813 -4.995533 38,000 28 444 0
2019-02-22 20:56:57 GMT 42.646774 -5.004897 38,000 31 444 0
2019-02-22 20:56:53 GMT 42.639801 -5.010596 38,000 31 444 0
2019-02-22 20:56:47 GMT 42.629559 -5.019027 38,000 31 444 0
2019-02-22 20:56:43 GMT 42.621552 -5.025670 38,000 31 444 0
2019-02-22 20:56:36 GMT 42.609833 -5.035296 38,000 31 443 0
2019-02-22 20:56:33 GMT 42.603119 -5.040872 38,000 31 443 0
2019-02-22 20:56:25 GMT 42.591476 -5.050465 38,000 31 444 0
2019-02-22 20:56:15 GMT 42.572754 -5.065883 38,000 31 444 0
2019-02-22 20:56:05 GMT 42.554214 -5.081114 38,000 31 444 0
2019-02-22 20:55:52 GMT 42.532333 -5.099030 38,000 31 444 -64
2019-02-22 20:55:43 GMT 42.516811 -5.111836 38,000 31 444 64
2019-02-22 20:55:32 GMT 42.498367 -5.126995 38,000 31 444 0
2019-02-22 20:55:22 GMT 42.480640 -5.141474 37,950 31 443 1024
2019-02-22 20:55:12 GMT 42.462296 -5.156520 37,775 31 443 832
2019-02-22 20:55:01 GMT 42.442291 -5.172938 37,625 31 443 896
2019-02-22 20:54:51 GMT 42.425583 -5.186670 37,475 31 443 1088
2019-02-22 20:54:41 GMT 42.406311 -5.202526 37,275 31 445 1152
2019-02-22 20:54:30 GMT 42.388367 -5.217257 37,100 31 446 896
2019-02-22 20:54:19 GMT 42.369781 -5.232488 36,925 31 446 1024
2019-02-22 20:54:09 GMT 42.351551 -5.247441 36,750 31 446 1024
2019-02-22 20:53:58 GMT 42.331951 -5.263537 36,550 31 446 1024
2019-02-22 20:53:47 GMT 42.312401 -5.279506 36,375 31 446 960
2019-02-22 20:53:36 GMT 42.293686 -5.294771 36,200 31 447 1024
2019-02-22 20:53:25 GMT 42.274879 -5.310037 36,050 31 446 640
2019-02-22 20:53:15 GMT 42.257126 -5.324499 36,000 31 445 -64
2019-02-22 20:53:05 GMT 42.238426 -5.339675 36,000 31 444 0
2019-02-22 20:52:52 GMT 42.215195 -5.358519 36,000 31 445 0
2019-02-22 20:52:39 GMT 42.192764 -5.376684 36,000 31 444 0
2019-02-22 20:52:32 GMT 42.180634 -5.386547 36,000 31 445 0
2019-02-22 20:52:23 GMT 42.164383 -5.399718 36,000 31 445 0
2019-02-22 20:52:13 GMT 42.145798 -5.414762 36,000 31 445 0
2019-02-22 20:52:06 GMT 42.133987 -5.424375 36,000 31 445 0
2019-02-22 20:52:00 GMT 42.124054 -5.432427 36,000 31 445 0
2019-02-22 20:51:57 GMT 42.118511 -5.436955 36,000 31 446 0
2019-02-22 20:51:51 GMT 42.108780 -5.444875 36,000 31 445 0
2019-02-22 20:51:41 GMT 42.088989 -5.460892 36,000 31 445 0
2019-02-22 20:51:28 GMT 42.066513 -5.479119 36,000 31 446 0
2019-02-22 20:51:18 GMT 42.049660 -5.492781 36,000 31 445 0
2019-02-22 20:51:07 GMT 42.031036 -5.507771 36,000 31 447 0
2019-02-22 20:51:00 GMT 42.017487 -5.518757 36,000 31 447 0
2019-02-22 20:50:56 GMT 41.995010 -5.536922 36,000 31 447 -64
2019-02-22 20:50:44 GMT 41.988968 -5.541791 36,000 31 447 0
2019-02-22 20:50:40 GMT 41.981693 -5.547712 36,000 31 447 0
2019-02-22 20:50:34 GMT 41.972290 -5.555250 36,000 31 448 0
2019-02-22 20:50:24 GMT 41.953014 -5.570835 36,000 30 448 0
2019-02-22 20:50:12 GMT 41.933716 -5.586361 36,000 30 448 0
2019-02-22 20:50:07 GMT 41.921768 -5.595911 36,000 30 448 0
2019-02-22 20:50:01 GMT 41.913631 -5.602452 36,000 30 448 0
2019-02-22 20:49:58 GMT 41.907955 -5.606988 36,000 30 448 0
2019-02-22 20:49:51 GMT 41.896042 -5.616573 36,000 30 448 0
2019-02-22 20:49:47 GMT 41.888447 -5.622701 36,000 31 449 0
2019-02-22 20:49:41 GMT 41.877365 -5.631617 36,000 31 449 0
2019-02-22 20:49:37 GMT 41.868755 -5.638541 36,000 30 448 0
2019-02-22 20:49:32 GMT 41.861633 -5.644226 36,000 30 449 0
2019-02-22 20:49:29 GMT 41.857178 -5.647784 36,000 30 449 0
2019-02-22 20:49:26 GMT 41.851410 -5.652466 36,000 30 449 0
2019-02-22 20:49:20 GMT 41.840546 -5.661153 36,000 30 449 0
2019-02-22 20:49:16 GMT 41.832027 -5.667987 36,000 30 449 0
2019-02-22 20:49:10 GMT 41.822346 -5.675716 36,000 30 449 0
2019-02-22 20:49:06 GMT 41.814468 -5.681992 36,000 30 451 0
2019-02-22 20:48:59 GMT 41.802933 -5.691293 36,000 30 451 0
2019-02-22 20:48:56 GMT 41.796509 -5.696411 36,000 30 451 0
2019-02-22 20:48:48 GMT 41.782963 -5.707270 36,000 30 451 0
2019-02-22 20:48:44 GMT 41.775101 -5.713577 36,000 30 451 0
2019-02-22 20:48:37 GMT 41.763828 -5.722599 36,000 30 451 0
2019-02-22 20:48:34 GMT 41.758484 -5.726936 36,000 30 452 0
2019-02-22 20:48:28 GMT 41.748234 -5.735119 36,000 30 452 0
2019-02-22 20:48:24 GMT 41.739994 -5.741698 36,000 30 452 0
2019-02-22 20:48:19 GMT 41.729553 -5.749969 36,000 30 452 -64
2019-02-22 20:48:15 GMT 41.722351 -5.755750 36,000 30 452 0
2019-02-22 20:48:08 GMT 41.711830 -5.764118 36,000 30 452 0
2019-02-22 20:48:04 GMT 41.703777 -5.770569 36,000 30 452 0
2019-02-22 20:47:56 GMT 41.690735 -5.780931 36,000 30 452 0
2019-02-22 20:47:53 GMT 41.684689 -5.785771 36,000 30 452 0
2019-02-22 20:47:48 GMT 41.673470 -5.794713 36,000 30 452 0
2019-02-22 20:47:45 GMT 41.669998 -5.797473 36,000 30 452 0
2019-02-22 20:47:37 GMT 41.654198 -5.810043 36,000 30 452 0
2019-02-22 20:47:32 GMT 41.646935 -5.815856 36,000 30 452 0
2019-02-22 20:47:26 GMT 41.636032 -5.824502 36,000 30 452 0
2019-02-22 20:47:23 GMT 41.629620 -5.829525 36,000 30 452 0
2019-02-22 20:47:16 GMT 41.616398 -5.840000 36,000 30 452 0
2019-02-22 20:47:12 GMT 41.610485 -5.844727 36,000 30 452 0
2019-02-22 20:47:08 GMT 41.596611 -5.855713 36,000 30 452 0
2019-02-22 20:47:04 GMT 41.596611 -5.855713 36,000 30 452 0
2019-02-22 20:47:01 GMT 41.590210 -5.860832 36,000 30 452 0
2019-02-22 20:46:55 GMT 41.580276 -5.868759 36,000 30 452 0
2019-02-22 20:46:52 GMT 41.573914 -5.873753 36,000 30 452 0
2019-02-22 20:46:46 GMT 41.564987 -5.880869 36,000 30 452 0
2019-02-22 20:46:43 GMT 41.559322 -5.885350 36,000 30 452 64
2019-02-22 20:46:40 GMT 41.552761 -5.890588 36,000 30 452 0
2019-02-22 20:46:37 GMT 41.547455 -5.894804 36,000 30 452 0
2019-02-22 20:46:33 GMT 41.540749 -5.900105 36,000 30 452 0
2019-02-22 20:46:30 GMT 41.535442 -5.904321 36,000 30 452 0
2019-02-22 20:46:24 GMT 41.524750 -5.912829 36,000 30 452 0
2019-02-22 20:46:20 GMT 41.516693 -5.919259 36,000 30 452 0
2019-02-22 20:46:16 GMT 41.510376 -5.924253 36,000 30 452 0
2019-02-22 20:46:13 GMT 41.505524 -5.928060 36,000 30 452 0
2019-02-22 20:46:10 GMT 41.499317 -5.933000 36,000 30 452 0
2019-02-22 20:46:05 GMT 41.491077 -5.939516 36,000 30 452 0
2019-02-22 20:46:01 GMT 41.484329 -5.944852 36,000 30 452 0
2019-02-22 20:45:58 GMT 41.478275 -5.949672 36,000 30 452 0
2019-02-22 20:45:55 GMT 41.472645 -5.954079 36,000 30 452 0
2019-02-22 20:45:51 GMT 41.464916 -5.960211 36,000 30 452 0
2019-02-22 20:45:48 GMT 41.459427 -5.964577 36,000 30 452 0
2019-02-22 20:45:43 GMT 41.450180 -5.971881 36,000 30 452 0
2019-02-22 20:45:40 GMT 41.444572 -5.976307 36,000 30 452 0
2019-02-22 20:45:37 GMT 41.437820 -5.981681 36,000 30 452 0
2019-02-22 20:45:33 GMT 41.424088 -5.992543 36,000 30 452 0
2019-02-22 20:45:29 GMT 41.424088 -5.992543 36,000 30 452 0
2019-02-22 20:45:26 GMT 41.420334 -5.995476 36,000 30 452 0
2019-02-22 20:45:22 GMT 41.407059 -6.005963 36,000 30 452 0
2019-02-22 20:45:19 GMT 41.403488 -6.008772 36,000 30 452 0
2019-02-22 20:45:16 GMT 41.403488 -6.008772 36,000 30 452 0
2019-02-22 20:45:13 GMT 41.398209 -6.012971 36,000 30 452 0
2019-02-22 20:45:09 GMT 41.387192 -6.021694 36,000 30 452 0
2019-02-22 20:45:06 GMT 41.384354 -6.023865 36,000 30 452 0
2019-02-22 20:45:03 GMT 41.380096 -6.027249 36,000 30 452 0
2019-02-22 20:44:59 GMT 41.371021 -6.034428 36,000 30 452 0
2019-02-22 20:44:53 GMT 41.361431 -6.041981 36,000 30 452 0
2019-02-22 20:44:50 GMT 41.355797 -6.046413 36,000 30 452 0
2019-02-22 20:44:46 GMT 41.348053 -6.052490 36,000 30 452 0
2019-02-22 20:44:42 GMT 41.342018 -6.057212 36,000 30 452 0
2019-02-22 20:44:38 GMT 41.330475 -6.066326 36,000 30 452 0
2019-02-22 20:44:34 GMT 41.324661 -6.070862 36,000 30 452 0
2019-02-22 20:44:30 GMT 41.311615 -6.081116 36,000 30 453 0
2019-02-22 20:44:27 GMT 41.311615 -6.081116 36,000 30 453 0
2019-02-22 20:44:21 GMT 41.301563 -6.088985 36,000 30 452 0
2019-02-22 20:44:16 GMT 41.293762 -6.095154 36,000 30 452 0
2019-02-22 20:44:13 GMT 41.289368 -6.098633 36,000 30 452 0
2019-02-22 20:44:10 GMT 41.282913 -6.103699 36,000 30 452 0
2019-02-22 20:44:06 GMT 41.274841 -6.110021 36,000 30 452 0
2019-02-22 20:44:02 GMT 41.268791 -6.114828 36,000 30 451 0
2019-02-22 20:43:58 GMT 41.261353 -6.120605 36,000 30 451 0
2019-02-22 20:43:55 GMT 41.256130 -6.124753 36,000 30 451 0
2019-02-22 20:43:52 GMT 41.249798 -6.129684 36,000 30 451 0
2019-02-22 20:43:47 GMT 41.241047 -6.136551 36,000 30 451 0
2019-02-22 20:43:44 GMT 41.237740 -6.139173 36,000 30 451 0
2019-02-22 20:43:40 GMT 41.230225 -6.145020 36,000 30 451 0
2019-02-22 20:43:37 GMT 41.223682 -6.150159 36,000 30 451 0
2019-02-22 20:43:34 GMT 41.218735 -6.154053 36,000 30 451 0
2019-02-22 20:43:31 GMT 41.211960 -6.159363 36,000 30 451 0
2019-02-22 20:43:26 GMT 41.204544 -6.165161 36,000 30 451 0
2019-02-22 20:43:23 GMT 41.199009 -6.169510 36,000 30 451 0
2019-02-22 20:43:19 GMT 41.192074 -6.174941 36,000 30 451 0
2019-02-22 20:43:15 GMT 41.184586 -6.180847 36,000 30 451 0
2019-02-22 20:43:12 GMT 41.172382 -6.190359 36,000 30 451 0
2019-02-22 20:43:09 GMT 41.172382 -6.190359 36,000 30 451 0
2019-02-22 20:43:05 GMT 41.164330 -6.196664 36,000 30 451 0
2019-02-22 20:42:57 GMT 41.152451 -6.205933 36,000 30 451 0
2019-02-22 20:42:54 GMT 41.145859 -6.211121 36,000 30 451 0
2019-02-22 20:42:51 GMT 41.139450 -6.216125 36,000 30 451 0
2019-02-22 20:42:47 GMT 41.134953 -6.219635 36,000 30 451 0
2019-02-22 20:42:44 GMT 41.128529 -6.224691 36,000 30 451 0
2019-02-22 20:42:41 GMT 41.123291 -6.228760 36,000 30 451 0
2019-02-22 20:42:37 GMT 41.116058 -6.234375 36,000 30 451 0
2019-02-22 20:42:34 GMT 41.107674 -6.240983 36,000 30 451 0
2019-02-22 20:42:31 GMT 41.104973 -6.243106 36,000 30 451 0
2019-02-22 20:42:27 GMT 41.097015 -6.249286 36,000 30 451 0
2019-02-22 20:42:21 GMT 41.087814 -6.256531 36,000 30 451 0
2019-02-22 20:42:16 GMT 41.078720 -6.263580 36,000 30 451 0
2019-02-22 20:42:13 GMT 41.068909 -6.271240 36,000 30 451 -64
2019-02-22 20:42:05 GMT 41.059631 -6.278499 36,000 30 451 -64
2019-02-22 20:42:02 GMT 41.053394 -6.283368 36,000 30 451 0
2019-02-22 20:41:55 GMT 41.040081 -6.293730 36,000 30 451 0
2019-02-22 20:41:49 GMT 41.030457 -6.301208 36,000 30 451 64
2019-02-22 20:41:45 GMT 41.022400 -6.307495 36,000 30 452 0
2019-02-22 20:41:41 GMT 41.015640 -6.312769 36,000 30 452 0
2019-02-22 20:41:38 GMT 41.011230 -6.316162 36,000 30 452 0
2019-02-22 20:41:35 GMT 41.003582 -6.322132 36,000 30 452 64
2019-02-22 20:41:31 GMT 40.995808 -6.328125 36,000 30 452 0
2019-02-22 20:41:24 GMT 40.985138 -6.336487 36,000 30 452 0
2019-02-22 20:41:18 GMT 40.974106 -6.345032 36,000 30 452 0
2019-02-22 20:41:13 GMT 40.963257 -6.353455 36,000 30 452 0
2019-02-22 20:41:07 GMT 40.954704 -6.360085 36,000 30 452 0
2019-02-22 20:41:02 GMT 40.945541 -6.367249 36,000 30 452 0
2019-02-22 20:40:59 GMT 40.938171 -6.372925 36,000 30 453 0
2019-02-22 20:40:56 GMT 40.934406 -6.375816 36,000 30 453 0
2019-02-22 20:40:52 GMT 40.925144 -6.382994 36,000 30 453 0
2019-02-22 20:40:48 GMT 40.920227 -6.386841 36,000 30 453 0
2019-02-22 20:40:45 GMT 40.915600 -6.390360 36,000 30 453 0
2019-02-22 20:40:42 GMT 40.909195 -6.395325 36,000 30 453 0
2019-02-22 20:40:39 GMT 40.901825 -6.401001 36,000 30 453 0
2019-02-22 20:40:35 GMT 40.896561 -6.405029 36,000 30 453 0
2019-02-22 20:40:31 GMT 40.889019 -6.410897 36,000 30 453 0
2019-02-22 20:40:26 GMT 40.881058 -6.417389 36,000 32 454 -64
2019-02-22 20:40:23 GMT 40.874401 -6.423069 36,000 35 454 0
2019-02-22 20:40:19 GMT 40.868271 -6.428650 36,000 35 454 0
2019-02-22 20:40:16 GMT 40.862686 -6.433899 36,000 36 454 0
2019-02-22 20:40:13 GMT 40.856461 -6.440063 36,000 37 454 0
2019-02-22 20:40:10 GMT 40.843632 -6.453844 36,000 40 455 0
2019-02-22 20:40:05 GMT 40.843632 -6.453844 36,000 40 455 0
2019-02-22 20:40:02 GMT 40.839581 -6.458338 36,000 40 456 0
2019-02-22 20:39:59 GMT 40.835907 -6.462463 36,000 40 455 -64
2019-02-22 20:39:56 GMT 40.829292 -6.469886 36,000 40 455 0
2019-02-22 20:39:53 GMT 40.825058 -6.474609 36,000 40 455 0
2019-02-22 20:39:49 GMT 40.818680 -6.481809 36,000 40 456 64
2019-02-22 20:39:44 GMT 40.811321 -6.490048 36,000 40 456 0
2019-02-22 20:39:41 GMT 40.806335 -6.495605 36,000 40 456 -64
2019-02-22 20:39:38 GMT 40.802338 -6.500098 36,000 40 456 0
2019-02-22 20:39:35 GMT 40.795624 -6.507629 36,000 40 456 -64
2019-02-22 20:39:32 GMT 40.789902 -6.514038 36,000 40 456 -64
2019-02-22 20:39:28 GMT 40.785812 -6.518638 36,000 40 456 64
2019-02-22 20:39:24 GMT 40.778595 -6.526672 36,000 40 456 64
2019-02-22 20:39:21 GMT 40.773663 -6.532246 36,000 40 456 64
2019-02-22 20:39:18 GMT 40.768913 -6.537552 36,000 40 456 -64
2019-02-22 20:39:13 GMT 40.761749 -6.545532 36,000 40 456 0
2019-02-22 20:39:10 GMT 40.749596 -6.559150 36,000 40 456 -64
2019-02-22 20:39:03 GMT 40.745590 -6.563582 36,000 40 456 0
2019-02-22 20:39:00 GMT 40.741169 -6.568513 36,000 40 456 64
2019-02-22 20:38:57 GMT 40.735023 -6.575317 36,000 40 457 -64
2019-02-22 20:38:52 GMT 40.725998 -6.585388 36,000 40 456 -64
2019-02-22 20:38:49 GMT 40.722034 -6.589799 36,000 40 456 0
2019-02-22 20:38:45 GMT 40.716541 -6.595917 36,000 40 456 64
2019-02-22 20:38:42 GMT 40.711559 -6.601472 36,000 40 456 64
2019-02-22 20:38:39 GMT 40.705811 -6.607849 36,000 40 456 0
2019-02-22 20:38:36 GMT 40.700134 -6.614197 36,000 40 456 0
2019-02-22 20:38:30 GMT 40.692009 -6.623195 36,000 40 457 0
2019-02-22 20:38:24 GMT 40.683117 -6.633058 36,000 40 457 0
2019-02-22 20:38:20 GMT 40.675903 -6.641173 36,000 40 458 0
2019-02-22 20:38:17 GMT 40.671619 -6.645917 36,000 40 458 0
2019-02-22 20:38:13 GMT 40.665436 -6.652771 36,000 40 458 0
2019-02-22 20:38:10 GMT 40.660080 -6.658752 36,000 40 458 0
2019-02-22 20:38:07 GMT 40.654907 -6.664519 36,000 40 458 0
2019-02-22 20:38:04 GMT 40.650421 -6.669495 36,000 40 459 0
2019-02-22 20:38:00 GMT 40.643597 -6.677003 36,000 40 459 0
2019-02-22 20:37:57 GMT 40.633308 -6.688427 36,000 40 459 0
2019-02-22 20:37:54 GMT 40.633308 -6.688427 36,000 40 459 0
2019-02-22 20:37:47 GMT 40.621017 -6.702097 36,000 40 459 0
2019-02-22 20:37:44 GMT 40.616920 -6.706654 36,000 40 459 0
2019-02-22 20:37:39 GMT 40.609314 -6.715149 36,000 40 459 0
2019-02-22 20:37:36 GMT 40.604187 -6.720825 36,000 40 459 0
2019-02-22 20:37:33 GMT 40.599464 -6.726067 36,000 40 459 0
2019-02-22 20:37:28 GMT 40.590500 -6.736023 36,000 40 459 0
2019-02-22 20:37:25 GMT 40.586987 -6.739925 36,000 40 460 0
2019-02-22 20:37:22 GMT 40.581867 -6.745605 36,000 40 460 0
2019-02-22 20:37:17 GMT 40.573425 -6.754944 36,000 40 460 0
2019-02-22 20:37:13 GMT 40.565414 -6.763855 36,000 40 460 0
2019-02-22 20:37:08 GMT 40.558640 -6.771301 36,000 40 461 -64
2019-02-22 20:37:05 GMT 40.552780 -6.777771 36,000 40 461 0
2019-02-22 20:37:02 GMT 40.549255 -6.781677 36,000 40 461 -64
2019-02-22 20:36:57 GMT 40.540901 -6.790924 36,000 40 461 0
2019-02-22 20:36:54 GMT 40.536026 -6.796265 36,000 40 462 64
2019-02-22 20:36:51 GMT 40.531872 -6.800912 36,000 40 461 0
2019-02-22 20:36:47 GMT 40.523483 -6.810120 36,000 40 461 64
2019-02-22 20:36:44 GMT 40.518372 -6.815768 36,000 40 461 64
2019-02-22 20:36:39 GMT 40.512177 -6.822635 36,000 40 462 64
2019-02-22 20:36:35 GMT 40.504356 -6.831249 36,000 40 462 0
2019-02-22 20:36:32 GMT 40.500824 -6.835144 36,000 40 462 0
2019-02-22 20:36:29 GMT 40.496384 -6.840088 36,000 40 462 0
2019-02-22 20:36:26 GMT 40.488968 -6.848206 36,000 40 462 0
2019-02-22 20:36:23 GMT 40.484848 -6.852783 36,000 40 462 0
2019-02-22 20:36:20 GMT 40.480637 -6.857422 36,000 40 462 0
2019-02-22 20:36:11 GMT 40.459442 -6.880798 36,000 40 464 64
2019-02-22 20:36:05 GMT 40.454910 -6.885742 36,000 40 464 64
2019-02-22 20:36:02 GMT 40.451477 -6.889587 36,000 40 464 0
2019-02-22 20:35:59 GMT 40.445709 -6.895935 36,000 40 464 0
2019-02-22 20:35:54 GMT 40.437378 -6.905090 36,000 40 464 -64
2019-02-22 20:35:51 GMT 40.428177 -6.915222 36,000 40 464 0
2019-02-22 20:35:43 GMT 40.419296 -6.924988 36,000 40 465 -64
2019-02-22 20:35:39 GMT 40.412647 -6.932311 36,000 40 465 0
2019-02-22 20:35:35 GMT 40.406845 -6.938721 36,000 40 465 0
2019-02-22 20:35:32 GMT 40.400940 -6.945251 36,000 40 465 0
2019-02-22 20:35:29 GMT 40.395172 -6.951599 36,000 40 465 0
2019-02-22 20:35:26 GMT 40.389359 -6.957947 36,000 40 465 -64
2019-02-22 20:35:21 GMT 40.383926 -6.963959 36,000 40 465 -64
2019-02-22 20:35:17 GMT 40.376816 -6.971741 36,000 40 465 0
2019-02-22 20:35:14 GMT 40.369995 -6.979309 36,000 40 465 64
2019-02-22 20:35:11 GMT 40.366657 -6.982935 36,000 40 465 64
2019-02-22 20:35:07 GMT 40.360199 -6.990051 36,000 40 465 64
2019-02-22 20:35:04 GMT 40.356216 -6.994446 36,000 40 466 -64
2019-02-22 20:35:01 GMT 40.349617 -7.001662 36,000 40 466 -64
2019-02-22 20:34:56 GMT 40.342171 -7.009839 36,000 40 466 0
2019-02-22 20:34:51 GMT 40.333000 -7.019889 36,000 40 466 64
2019-02-22 20:34:47 GMT 40.328064 -7.025330 36,000 40 466 64
2019-02-22 20:34:44 GMT 40.322430 -7.031500 36,000 40 466 0
2019-02-22 20:34:40 GMT 40.315823 -7.038803 36,000 40 466 -64
2019-02-22 20:34:37 GMT 40.310760 -7.044373 36,000 40 466 -64
2019-02-22 20:34:33 GMT 40.297852 -7.058472 36,000 40 466 0
2019-02-22 20:34:30 GMT 40.297852 -7.058472 36,000 40 466 64
2019-02-22 20:34:26 GMT 40.291351 -7.065613 36,000 39 467 64
2019-02-22 20:34:21 GMT 40.284668 -7.072937 36,000 39 467 64
2019-02-22 20:34:18 GMT 40.279881 -7.078192 36,000 39 466 0
2019-02-22 20:34:15 GMT 40.274574 -7.083934 36,000 39 466 -64
2019-02-22 20:34:11 GMT 40.268967 -7.090088 36,000 39 467 -64
2019-02-22 20:34:08 GMT 40.263683 -7.095920 36,000 39 466 0
2019-02-22 20:34:05 GMT 40.257477 -7.102661 36,000 39 466 0
2019-02-22 20:34:01 GMT 40.249100 -7.111816 36,000 39 466 0
2019-02-22 20:33:58 GMT 40.246399 -7.114746 36,000 39 466 0
2019-02-22 20:33:55 GMT 40.241592 -7.119995 36,000 39 466 0
2019-02-22 20:33:52 GMT 40.236870 -7.125133 36,000 39 466 64
2019-02-22 20:33:48 GMT 40.227539 -7.135315 36,000 39 466 0
2019-02-22 20:33:44 GMT 40.222687 -7.140625 36,000 39 466 -64
2019-02-22 20:33:41 GMT 40.218899 -7.144796 36,000 39 466 -64
2019-02-22 20:33:37 GMT 40.212334 -7.151912 36,000 39 466 0
2019-02-22 20:33:34 GMT 40.206329 -7.158467 36,000 39 466 0
2019-02-22 20:33:30 GMT 40.198105 -7.167419 36,000 39 466 0
2019-02-22 20:33:27 GMT 40.193802 -7.172119 36,000 39 466 0
2019-02-22 20:33:22 GMT 40.185791 -7.180847 36,000 39 466 0
2019-02-22 20:33:19 GMT 40.181488 -7.185547 36,000 39 465 0
2019-02-22 20:33:15 GMT 40.175697 -7.191863 36,000 39 465 -64
2019-02-22 20:33:12 GMT 40.169228 -7.198916 36,000 39 465 -64
2019-02-22 20:33:08 GMT 40.162804 -7.205970 36,000 39 466 0
2019-02-22 20:33:05 GMT 40.158520 -7.210652 36,000 39 465 -64
2019-02-22 20:33:02 GMT 40.151958 -7.217768 36,000 39 466 64
2019-02-22 20:32:57 GMT 40.140457 -7.230252 36,000 39 466 0
2019-02-22 20:32:51 GMT 40.135849 -7.235291 36,000 39 466 0
2019-02-22 20:32:48 GMT 40.129658 -7.242050 36,000 39 466 0
2019-02-22 20:32:44 GMT 40.118317 -7.254395 36,000 39 465 0
2019-02-22 20:32:37 GMT 40.111828 -7.261401 36,000 39 465 0
2019-02-22 20:32:34 GMT 40.107788 -7.265808 36,000 39 465 0
2019-02-22 20:32:31 GMT 40.100510 -7.273743 36,000 39 465 0
2019-02-22 20:32:27 GMT 40.095116 -7.279566 36,000 39 465 0
2019-02-22 20:32:24 GMT 40.089111 -7.286183 36,000 39 465 0
2019-02-22 20:32:19 GMT 40.083340 -7.292425 36,000 39 465 0
2019-02-22 20:32:16 GMT 40.078686 -7.297481 36,000 39 465 0
2019-02-22 20:32:13 GMT 40.072212 -7.304535 36,000 39 465 0
2019-02-22 20:32:09 GMT 40.066116 -7.311089 36,000 39 465 64
2019-02-22 20:32:06 GMT 40.060318 -7.317444 36,000 39 465 64
2019-02-22 20:32:02 GMT 40.054459 -7.323792 36,000 39 465 64
2019-02-22 20:31:59 GMT 40.048645 -7.330078 36,000 39 465 -64
2019-02-22 20:31:55 GMT 40.043655 -7.335510 36,000 39 465 0
2019-02-22 20:31:52 GMT 40.036648 -7.343112 36,000 39 465 0
2019-02-22 20:31:48 GMT 40.030884 -7.349365 36,000 39 464 0
2019-02-22 20:31:45 GMT 40.025894 -7.354736 36,000 39 465 0
2019-02-22 20:31:42 GMT 40.021500 -7.359497 36,000 39 464 0
2019-02-22 20:31:39 GMT 40.014954 -7.366638 36,000 39 465 0
2019-02-22 20:31:36 GMT 40.010880 -7.371033 36,000 39 465 0
2019-02-22 20:31:33 GMT 40.002182 -7.380493 36,000 39 465 -64
2019-02-22 20:31:27 GMT 39.995590 -7.387634 36,000 39 465 0
2019-02-22 20:31:23 GMT 39.991211 -7.392363 36,000 39 465 0
2019-02-22 20:31:20 GMT 39.985161 -7.398917 36,000 39 465 0
2019-02-22 20:31:17 GMT 39.981201 -7.403225 36,000 39 465 0
2019-02-22 20:31:14 GMT 39.974640 -7.410341 36,000 39 465 0
2019-02-22 20:31:10 GMT 39.967144 -7.418393 36,000 39 465 0
2019-02-22 20:31:07 GMT 39.957779 -7.428589 36,000 39 465 0
2019-02-22 20:31:04 GMT 39.957779 -7.428589 36,000 39 465 0
2019-02-22 20:31:00 GMT 39.946987 -7.440241 36,000 39 465 0
2019-02-22 20:30:57 GMT 39.946987 -7.440241 36,000 39 465 0
2019-02-22 20:30:54 GMT 39.941216 -7.446421 36,000 39 465 0
2019-02-22 20:30:51 GMT 39.937546 -7.450378 36,000 39 465 0
2019-02-22 20:30:48 GMT 39.932323 -7.456034 36,000 39 465 0
2019-02-22 20:30:45 GMT 39.926178 -7.462651 36,000 39 465 0
2019-02-22 20:30:39 GMT 39.917381 -7.472046 36,000 39 465 0
2019-02-22 20:30:36 GMT 39.912678 -7.477173 36,000 39 465 0
2019-02-22 20:30:33 GMT 39.906815 -7.483459 36,000 39 465 0
2019-02-22 20:30:30 GMT 39.903183 -7.487366 36,000 39 465 0
2019-02-22 20:30:26 GMT 39.895203 -7.495960 36,000 39 465 0
2019-02-22 20:30:23 GMT 39.889618 -7.501931 36,000 39 465 0
2019-02-22 20:30:18 GMT 39.882156 -7.509991 36,000 39 465 0
2019-02-22 20:30:15 GMT 39.877998 -7.514404 36,000 39 465 -64
2019-02-22 20:30:11 GMT 39.872040 -7.520858 36,000 39 465 0
2019-02-22 20:30:08 GMT 39.864731 -7.528687 36,000 39 465 0
2019-02-22 20:30:05 GMT 39.860634 -7.533142 36,000 39 465 0
2019-02-22 20:30:02 GMT 39.855560 -7.538591 36,000 39 465 0
2019-02-22 20:29:58 GMT 39.850571 -7.543965 36,000 39 465 0
2019-02-22 20:29:55 GMT 39.843410 -7.551636 36,000 39 465 0
2019-02-22 20:29:52 GMT 39.838577 -7.556862 36,000 39 465 0
2019-02-22 20:29:46 GMT 39.828186 -7.568054 36,000 39 465 0
2019-02-22 20:29:42 GMT 39.821686 -7.575014 36,000 39 465 -64
2019-02-22 20:29:38 GMT 39.816036 -7.581116 36,000 39 465 -64
2019-02-22 20:29:34 GMT 39.809738 -7.587911 36,000 39 465 0
2019-02-22 20:29:31 GMT 39.804657 -7.593344 36,000 39 465 0
2019-02-22 20:29:26 GMT 39.791153 -7.607853 36,000 39 465 0
2019-02-22 20:29:23 GMT 39.791153 -7.607853 36,000 39 465 0
2019-02-22 20:29:20 GMT 39.786163 -7.613227 36,000 39 465 0
2019-02-22 20:29:15 GMT 39.776505 -7.623616 36,000 39 465 0
2019-02-22 20:29:12 GMT 39.774033 -7.626303 36,000 39 465 0
2019-02-22 20:29:09 GMT 39.769821 -7.630841 36,000 39 465 0
2019-02-22 20:29:06 GMT 39.764236 -7.636812 36,000 39 465 0
2019-02-22 20:29:02 GMT 39.756355 -7.645264 36,000 39 465 0
2019-02-22 20:28:55 GMT 39.745045 -7.657410 36,000 39 465 0
2019-02-22 20:28:52 GMT 39.739655 -7.663143 36,000 39 465 0
2019-02-22 20:28:49 GMT 39.735313 -7.667847 36,000 39 465 0
2019-02-22 20:28:45 GMT 39.729080 -7.674547 36,000 39 467 0
2019-02-22 20:28:42 GMT 39.724422 -7.679504 36,000 39 467 0
2019-02-22 20:28:39 GMT 39.717957 -7.686429 36,000 39 467 0
2019-02-22 20:28:35 GMT 39.710503 -7.694458 36,000 39 467 0
2019-02-22 20:28:31 GMT 39.704033 -7.701355 36,000 39 468 0
2019-02-22 20:28:28 GMT 39.700104 -7.705536 36,000 39 467 0
2019-02-22 20:28:24 GMT 39.694107 -7.711984 36,000 39 467 -64
2019-02-22 20:28:21 GMT 39.687504 -7.719055 36,000 39 467 0
2019-02-22 20:28:18 GMT 39.683270 -7.723572 36,000 39 467 0
2019-02-22 20:28:14 GMT 39.676380 -7.730957 36,000 39 468 0
2019-02-22 20:28:10 GMT 39.669956 -7.737854 36,000 39 468 0
2019-02-22 20:28:07 GMT 39.665268 -7.742854 36,000 39 468 0
2019-02-22 20:28:03 GMT 39.659481 -7.749023 36,000 39 468 0
2019-02-22 20:28:00 GMT 39.652496 -7.756467 36,000 39 468 0
2019-02-22 20:27:57 GMT 39.646725 -7.762634 36,000 39 468 0
2019-02-22 20:27:52 GMT 39.639931 -7.769897 36,000 39 468 0
2019-02-22 20:27:49 GMT 39.634598 -7.775574 36,000 39 468 0
2019-02-22 20:27:46 GMT 39.629456 -7.781006 36,000 39 469 0
2019-02-22 20:27:39 GMT 39.617798 -7.793427 36,000 39 469 0
2019-02-22 20:27:36 GMT 39.612228 -7.799438 36,000 39 469 0
2019-02-22 20:27:28 GMT 39.599716 -7.812772 36,000 39 470 -64
2019-02-22 20:27:25 GMT 39.594772 -7.818026 36,000 39 470 0
2019-02-22 20:27:17 GMT 39.580444 -7.833252 36,000 39 469 0
2019-02-22 20:27:14 GMT 39.577011 -7.836894 36,000 39 469 64
2019-02-22 20:27:08 GMT 39.559345 -7.855652 36,000 39 470 64
2019-02-22 20:27:04 GMT 39.559345 -7.855652 36,000 39 470 64
2019-02-22 20:27:00 GMT 39.552383 -7.862987 36,000 39 471 0
2019-02-22 20:26:57 GMT 39.547211 -7.868540 36,000 39 471 0
2019-02-22 20:26:54 GMT 39.541470 -7.874634 36,000 39 471 0
2019-02-22 20:26:50 GMT 39.536133 -7.880302 36,000 39 471 0
2019-02-22 20:26:46 GMT 39.528854 -7.888064 36,000 39 471 0
2019-02-22 20:26:43 GMT 39.524506 -7.892662 36,000 39 471 0
2019-02-22 20:26:40 GMT 39.519032 -7.898499 36,000 39 470 0
2019-02-22 20:26:35 GMT 39.511368 -7.906693 36,000 39 471 0
2019-02-22 20:26:32 GMT 39.500877 -7.917786 36,000 39 471 0
2019-02-22 20:26:25 GMT 39.494751 -7.924307 36,000 39 471 0
2019-02-22 20:26:22 GMT 39.487518 -7.932007 36,000 39 471 0
2019-02-22 20:26:18 GMT 39.483326 -7.936462 36,000 39 471 -64
2019-02-22 20:26:15 GMT 39.476391 -7.943848 36,000 39 471 0
2019-02-22 20:26:11 GMT 39.469734 -7.950867 36,000 39 471 0
2019-02-22 20:26:08 GMT 39.465729 -7.955139 36,000 39 471 0
2019-02-22 20:26:05 GMT 39.458862 -7.962341 36,000 39 471 0
2019-02-22 20:26:01 GMT 39.452045 -7.969604 36,000 39 472 0
2019-02-22 20:25:58 GMT 39.448227 -7.973633 36,000 39 472 0
2019-02-22 20:25:53 GMT 39.434307 -7.988403 36,000 39 472 0
2019-02-22 20:25:50 GMT 39.434307 -7.988403 36,000 39 472 0
2019-02-22 20:25:47 GMT 39.429932 -7.992981 36,000 39 472 0
2019-02-22 20:25:44 GMT 39.424164 -7.999122 36,000 39 473 0
2019-02-22 20:25:39 GMT 39.416477 -8.007263 36,000 39 473 0
2019-02-22 20:25:34 GMT 39.407043 -8.017273 36,000 39 473 0
2019-02-22 20:25:29 GMT 39.398209 -8.026587 36,000 39 473 0
2019-02-22 20:25:24 GMT 39.389236 -8.036081 36,000 39 473 0
2019-02-22 20:25:21 GMT 39.385056 -8.040588 36,000 39 473 0
2019-02-22 20:25:16 GMT 39.377651 -8.048401 36,000 39 473 0
2019-02-22 20:25:13 GMT 39.372162 -8.054199 36,000 39 473 0
2019-02-22 20:25:10 GMT 39.367126 -8.059546 36,000 39 474 0
2019-02-22 20:25:06 GMT 39.360214 -8.066831 36,000 39 474 0
2019-02-22 20:25:03 GMT 39.354630 -8.072802 36,000 39 474 -64
2019-02-22 20:24:59 GMT 39.349770 -8.077881 36,000 39 474 0
2019-02-22 20:24:55 GMT 39.341995 -8.086117 36,000 39 474 0
2019-02-22 20:24:52 GMT 39.336823 -8.091610 36,000 39 475 0
2019-02-22 20:24:49 GMT 39.331661 -8.096985 36,000 39 475 0
2019-02-22 20:24:45 GMT 39.318604 -8.110836 36,000 39 475 0
2019-02-22 20:24:42 GMT 39.318604 -8.110836 36,000 39 474 0
2019-02-22 20:24:39 GMT 39.314342 -8.115295 36,000 39 475 0
2019-02-22 20:24:35 GMT 39.301849 -8.128450 36,000 39 475 0
2019-02-22 20:24:32 GMT 39.301849 -8.128450 36,000 39 475 64
2019-02-22 20:24:29 GMT 39.296219 -8.134421 36,000 39 476 0
2019-02-22 20:24:24 GMT 39.289215 -8.141884 36,000 39 476 0
2019-02-22 20:24:21 GMT 39.283386 -8.148010 36,000 39 475 0
2019-02-22 20:24:18 GMT 39.279190 -8.152393 36,000 39 475 0
2019-02-22 20:24:13 GMT 39.271515 -8.160522 36,000 39 476 0
2019-02-22 20:24:10 GMT 39.265137 -8.167236 36,000 39 476 0
2019-02-22 20:24:07 GMT 39.260742 -8.171798 36,000 39 476 64
2019-02-22 20:24:03 GMT 39.253826 -8.179077 36,000 39 476 64
2019-02-22 20:23:59 GMT 39.246460 -8.186785 36,000 39 476 0
2019-02-22 20:23:56 GMT 39.242092 -8.191406 36,000 39 475 0
2019-02-22 20:23:53 GMT 39.236229 -8.197510 36,000 39 476 -64
2019-02-22 20:23:49 GMT 39.229294 -8.204757 36,000 39 476 -64
2019-02-22 20:23:46 GMT 39.224258 -8.210011 36,000 39 476 0
2019-02-22 20:23:41 GMT 39.211533 -8.223386 36,000 39 476 0
2019-02-22 20:23:35 GMT 39.206268 -8.228939 36,000 39 475 0
2019-02-22 20:23:31 GMT 39.188789 -8.247253 36,000 39 475 64
2019-02-22 20:23:27 GMT 39.188789 -8.247253 36,000 39 475 0
2019-02-22 20:23:24 GMT 39.185349 -8.250852 36,000 39 475 64
2019-02-22 20:23:21 GMT 39.182602 -8.253718 36,000 39 475 0
2019-02-22 20:23:18 GMT 39.176826 -8.259766 36,000 39 475 -64
2019-02-22 20:23:14 GMT 39.170822 -8.266052 36,000 39 475 -64
2019-02-22 20:23:11 GMT 39.164864 -8.272278 36,000 39 475 -64
2019-02-22 20:23:08 GMT 39.150375 -8.287453 36,000 39 475 -64
2019-02-22 20:23:03 GMT 39.150375 -8.287453 36,000 39 475 -64
2019-02-22 20:23:00 GMT 39.145031 -8.293091 36,000 39 475 -64
2019-02-22 20:22:57 GMT 39.135406 -8.303156 36,000 39 475 64
2019-02-22 20:22:54 GMT 39.135406 -8.303156 36,000 39 475 128
2019-02-22 20:22:48 GMT 39.124008 -8.315098 36,000 39 474 0
2019-02-22 20:22:45 GMT 39.118744 -8.320591 36,000 39 474 0
2019-02-22 20:22:41 GMT 39.113281 -8.326355 36,000 39 474 0
2019-02-22 20:22:38 GMT 39.108440 -8.331421 36,000 39 474 0
2019-02-22 20:22:35 GMT 39.102482 -8.337646 36,000 39 474 0
2019-02-22 20:22:31 GMT 39.095921 -8.344543 36,000 39 474 0
2019-02-22 20:22:28 GMT 39.091553 -8.349132 36,000 39 474 0
2019-02-22 20:22:24 GMT 39.085190 -8.355700 36,000 39 474 0
2019-02-22 20:22:21 GMT 39.078323 -8.362865 36,000 39 473 0
2019-02-22 20:22:18 GMT 39.073200 -8.368225 36,000 39 472 0
2019-02-22 20:22:15 GMT 39.069168 -8.372418 36,000 39 472 0
2019-02-22 20:22:11 GMT 39.057423 -8.384705 36,000 39 472 0
2019-02-22 20:22:08 GMT 39.057423 -8.384705 36,000 39 471 0
2019-02-22 20:22:05 GMT 39.052021 -8.390320 36,000 39 471 0
2019-02-22 20:22:02 GMT 39.039639 -8.403198 36,000 39 471 0
2019-02-22 20:21:57 GMT 39.039639 -8.403198 36,000 39 471 0
2019-02-22 20:21:54 GMT 39.034050 -8.409058 36,000 39 471 0
2019-02-22 20:21:51 GMT 39.028931 -8.414368 36,000 39 470 -64
2019-02-22 20:21:47 GMT 39.022339 -8.421259 36,000 39 469 0
2019-02-22 20:21:44 GMT 39.016457 -8.427368 36,000 39 469 0
2019-02-22 20:21:41 GMT 39.012039 -8.431947 36,000 39 469 0
2019-02-22 20:21:37 GMT 39.003525 -8.440844 36,000 39 468 0
2019-02-22 20:21:34 GMT 38.998253 -8.446289 36,000 39 468 0
2019-02-22 20:21:30 GMT 38.993179 -8.451531 36,000 39 467 64
2019-02-22 20:21:27 GMT 38.981632 -8.463562 36,000 39 467 0
2019-02-22 20:21:24 GMT 38.981632 -8.463562 36,000 39 467 0
2019-02-22 20:21:20 GMT 38.975693 -8.469742 36,000 39 467 -64
2019-02-22 20:21:17 GMT 38.969788 -8.475892 36,000 39 467 -64
2019-02-22 20:21:13 GMT 38.961319 -8.484729 36,000 39 467 0
2019-02-22 20:21:09 GMT 38.957977 -8.488192 36,000 39 467 0
2019-02-22 20:21:05 GMT 38.951420 -8.494995 36,000 39 467 -64
2019-02-22 20:21:02 GMT 38.946075 -8.500552 36,000 39 467 0
2019-02-22 20:20:59 GMT 38.940720 -8.506165 36,000 39 467 64
2019-02-22 20:20:55 GMT 38.934292 -8.512817 36,000 39 467 64
2019-02-22 20:20:52 GMT 38.929310 -8.518005 36,000 39 467 0
2019-02-22 20:20:49 GMT 38.922318 -8.525271 36,000 39 467 0
2019-02-22 20:20:45 GMT 38.918602 -8.529114 36,000 39 467 0
2019-02-22 20:20:42 GMT 38.910828 -8.537170 36,000 39 467 0
2019-02-22 20:20:38 GMT 38.905708 -8.542480 36,000 39 467 0
2019-02-22 20:20:34 GMT 38.899052 -8.549377 36,000 39 467 0
2019-02-22 20:20:31 GMT 38.892883 -8.555782 36,000 39 468 0
2019-02-22 20:20:27 GMT 38.887985 -8.560857 36,000 39 468 0
2019-02-22 20:20:23 GMT 38.880478 -8.568619 36,000 39 468 0
2019-02-22 20:20:20 GMT 38.876377 -8.572876 36,000 39 468 0
2019-02-22 20:20:17 GMT 38.869629 -8.579895 36,000 39 467 0
2019-02-22 20:20:13 GMT 38.863857 -8.585876 36,000 39 468 0
2019-02-22 20:20:10 GMT 38.858501 -8.591431 36,000 39 468 0
2019-02-22 20:20:05 GMT 38.849609 -8.600647 36,000 39 468 0
2019-02-22 20:20:02 GMT 38.841293 -8.609341 36,000 39 468 0
2019-02-22 20:19:59 GMT 38.841293 -8.609341 36,000 39 468 0
2019-02-22 20:19:55 GMT 38.832779 -8.618118 36,000 39 468 0
2019-02-22 20:19:52 GMT 38.829208 -8.621820 36,000 39 468 64
2019-02-22 20:19:49 GMT 38.823448 -8.627808 36,000 39 468 0
2019-02-22 20:19:46 GMT 38.817032 -8.634478 36,000 39 468 0
2019-02-22 20:19:42 GMT 38.811859 -8.639771 36,000 39 468 0
2019-02-22 20:19:39 GMT 38.806038 -8.645874 36,000 38 469 0
2019-02-22 20:19:35 GMT 38.800125 -8.651978 36,000 39 469 0
2019-02-22 20:19:31 GMT 38.793777 -8.658540 36,000 39 469 0
2019-02-22 20:19:28 GMT 38.787697 -8.664856 36,000 38 469 0
2019-02-22 20:19:24 GMT 38.780529 -8.672241 36,000 38 470 0
2019-02-22 20:19:21 GMT 38.777206 -8.675676 36,000 38 470 0
2019-02-22 20:19:17 GMT 38.770294 -8.682782 36,000 38 470 0
2019-02-22 20:19:14 GMT 38.763290 -8.690006 36,000 38 470 0
2019-02-22 20:19:11 GMT 38.759579 -8.693909 36,000 38 470 0
2019-02-22 20:19:08 GMT 38.752808 -8.700873 36,000 38 470 0
2019-02-22 20:19:03 GMT 38.746536 -8.707322 36,000 38 470 0
2019-02-22 20:18:56 GMT 38.732346 -8.721924 36,000 38 470 0
2019-02-22 20:18:50 GMT 38.716690 -8.738072 36,000 38 470 0
2019-02-22 20:18:46 GMT 38.716690 -8.738072 36,000 38 470 0
2019-02-22 20:18:43 GMT 38.711700 -8.743147 36,000 38 470 0
2019-02-22 20:18:40 GMT 38.699844 -8.755327 36,000 38 471 0
2019-02-22 20:18:36 GMT 38.699844 -8.755327 36,000 38 471 0
2019-02-22 20:18:32 GMT 38.693390 -8.761955 36,000 38 471 0
2019-02-22 20:18:29 GMT 38.687798 -8.767700 36,000 38 471 0
2019-02-22 20:18:25 GMT 38.681374 -8.774353 36,000 38 471 0
2019-02-22 20:18:22 GMT 38.675179 -8.780701 36,000 38 471 64
2019-02-22 20:18:19 GMT 38.671097 -8.784943 36,000 38 471 64
2019-02-22 20:18:15 GMT 38.662750 -8.793518 36,000 38 471 0
2019-02-22 20:18:12 GMT 38.658703 -8.797729 36,000 38 471 0
2019-02-22 20:18:09 GMT 38.654755 -8.801721 36,000 38 472 -64
2019-02-22 20:18:06 GMT 38.649483 -8.807190 36,000 38 472 0
2019-02-22 20:18:02 GMT 38.640636 -8.816284 36,000 38 472 64
2019-02-22 20:17:57 GMT 38.634773 -8.822327 36,000 38 472 0
2019-02-22 20:17:54 GMT 38.628845 -8.828470 36,000 38 472 0
2019-02-22 20:17:51 GMT 38.622528 -8.834978 36,000 38 472 0
2019-02-22 20:17:47 GMT 38.617455 -8.840210 36,000 38 472 0
2019-02-22 20:17:44 GMT 38.611267 -8.846502 36,000 38 472 0
2019-02-22 20:17:41 GMT 38.599442 -8.858704 36,000 38 472 0
2019-02-22 20:17:37 GMT 38.593048 -8.865310 36,000 38 473 0
2019-02-22 20:17:34 GMT 38.593048 -8.865310 36,000 38 473 -64
2019-02-22 20:17:31 GMT 38.588013 -8.870445 36,000 38 473 -64
2019-02-22 20:17:27 GMT 38.583378 -8.875183 36,000 38 473 0
2019-02-22 20:17:23 GMT 38.575745 -8.883043 36,000 38 474 0
2019-02-22 20:17:19 GMT 38.569740 -8.889160 36,000 38 474 0
2019-02-22 20:17:16 GMT 38.564713 -8.894328 36,000 38 473 0
2019-02-22 20:17:13 GMT 38.558800 -8.900330 36,000 38 474 0
2019-02-22 20:17:10 GMT 38.553448 -8.905884 36,000 38 474 0
2019-02-22 20:17:06 GMT 38.547226 -8.912241 36,000 38 474 0
2019-02-22 20:17:03 GMT 38.540222 -8.919346 36,000 38 474 0
2019-02-22 20:17:00 GMT 38.535507 -8.924182 36,000 38 474 0
2019-02-22 20:16:56 GMT 38.530701 -8.929138 36,000 38 475 0
2019-02-22 20:16:52 GMT 38.522209 -8.937805 36,000 38 475 64
2019-02-22 20:16:48 GMT 38.515831 -8.944336 36,000 38 475 64
2019-02-22 20:16:45 GMT 38.503555 -8.956843 36,000 38 475 64
2019-02-22 20:16:42 GMT 38.503555 -8.956843 36,000 38 475 64
2019-02-22 20:16:39 GMT 38.499863 -8.960632 36,000 38 476 0
2019-02-22 20:16:35 GMT 38.491196 -8.969501 36,000 38 477 0
2019-02-22 20:16:32 GMT 38.487946 -8.972845 36,000 38 477 0
2019-02-22 20:16:29 GMT 38.481754 -8.979126 36,000 38 477 -64
2019-02-22 20:16:25 GMT 38.475952 -8.985085 36,000 38 477 -64
2019-02-22 20:16:21 GMT 38.468536 -8.992676 36,000 38 477 0
2019-02-22 20:16:17 GMT 38.463692 -8.997620 36,000 38 477 0
2019-02-22 20:16:14 GMT 38.458481 -9.002930 36,000 38 477 0
2019-02-22 20:16:11 GMT 38.450409 -9.011177 36,000 38 477 0
2019-02-22 20:16:08 GMT 38.446884 -9.014760 36,000 38 477 0
2019-02-22 20:16:04 GMT 38.432083 -9.029907 36,000 38 477 0
2019-02-22 20:16:00 GMT 38.432083 -9.029907 36,000 38 477 0
2019-02-22 20:15:57 GMT 38.427616 -9.034485 36,000 38 477 0
2019-02-22 20:15:52 GMT 38.419785 -9.042524 36,000 38 477 0
2019-02-22 20:15:49 GMT 38.414303 -9.048096 36,000 38 477 0
2019-02-22 20:15:46 GMT 38.409851 -9.052617 36,000 38 477 0
2019-02-22 20:15:43 GMT 38.404991 -9.057571 36,000 38 476 0
2019-02-22 20:15:40 GMT 38.397675 -9.065065 36,000 38 476 0
2019-02-22 20:15:36 GMT 38.392281 -9.070527 36,000 38 476 64
2019-02-22 20:15:32 GMT 38.383713 -9.079265 36,000 38 476 64
2019-02-22 20:15:28 GMT 38.378494 -9.084583 36,000 38 476 0
2019-02-22 20:15:25 GMT 38.374172 -9.088977 36,000 38 478 0
2019-02-22 20:15:21 GMT 38.366272 -9.097030 36,000 38 478 0
2019-02-22 20:15:18 GMT 38.361877 -9.101530 36,000 38 478 0
2019-02-22 20:15:15 GMT 38.355644 -9.107845 36,000 38 478 0
2019-02-22 20:15:12 GMT 38.348282 -9.115321 36,000 38 478 0
2019-02-22 20:15:08 GMT 38.342331 -9.121399 36,000 38 478 0
2019-02-22 20:15:05 GMT 38.338577 -9.125197 36,000 38 478 0
2019-02-22 20:15:01 GMT 38.330887 -9.133028 36,000 38 478 -64
2019-02-22 20:14:58 GMT 38.326767 -9.137236 36,000 38 478 0
2019-02-22 20:14:55 GMT 38.320732 -9.143372 36,000 38 479 0
2019-02-22 20:14:51 GMT 38.315186 -9.148982 36,000 38 479 0
2019-02-22 20:14:48 GMT 38.308537 -9.155731 36,000 38 480 0
2019-02-22 20:14:44 GMT 38.302505 -9.161838 36,000 38 480 0
2019-02-22 20:14:41 GMT 38.295406 -9.169046 36,000 38 480 0
2019-02-22 20:14:37 GMT 38.290146 -9.174344 36,000 38 480 0
2019-02-22 20:14:34 GMT 38.284748 -9.179853 36,000 38 480 0
2019-02-22 20:14:31 GMT 38.279346 -9.185347 36,000 38 480 0
2019-02-22 20:14:27 GMT 38.272202 -9.192635 36,000 38 480 0
2019-02-22 20:14:24 GMT 38.266388 -9.198537 36,000 38 480 0
2019-02-22 20:14:19 GMT 38.259094 -9.205946 36,000 38 480 0
2019-02-22 20:14:16 GMT 38.253525 -9.211569 36,000 38 481 0
2019-02-22 20:14:13 GMT 38.248901 -9.216244 36,000 38 481 0
2019-02-22 20:14:10 GMT 38.235718 -9.229626 36,000 38 481 0
2019-02-22 20:14:06 GMT 38.235718 -9.229626 36,000 38 481 0
2019-02-22 20:14:02 GMT 38.229721 -9.235681 36,000 38 481 0
2019-02-22 20:13:59 GMT 38.224091 -9.241353 36,000 38 481 0
2019-02-22 20:13:55 GMT 38.216171 -9.249378 36,000 38 481 0
2019-02-22 20:13:52 GMT 38.212543 -9.253056 36,000 38 481 0
2019-02-22 20:13:48 GMT 38.204678 -9.260997 36,000 38 481 0
2019-02-22 20:13:45 GMT 38.194061 -9.271701 36,000 38 483 0
2019-02-22 20:13:42 GMT 38.194061 -9.271701 36,000 38 483 0
2019-02-22 20:13:39 GMT 38.188660 -9.277136 36,000 38 483 0
2019-02-22 20:13:36 GMT 38.183853 -9.281986 36,000 38 483 0
2019-02-22 20:13:32 GMT 38.175770 -9.290135 36,000 38 483 0
2019-02-22 20:13:29 GMT 38.169342 -9.296654 36,000 38 483 0
2019-02-22 20:13:24 GMT 38.161430 -9.304644 36,000 38 483 0
2019-02-22 20:13:21 GMT 38.157936 -9.308167 36,000 38 483 0
2019-02-22 20:13:18 GMT 38.151932 -9.314257 36,000 38 485 0
2019-02-22 20:13:11 GMT 38.139679 -9.326574 36,000 38 483 0
2019-02-22 20:13:08 GMT 38.134827 -9.331483 36,000 38 485 0
2019-02-22 20:13:05 GMT 38.129425 -9.336918 36,000 38 483 0
2019-02-22 20:13:01 GMT 38.121861 -9.344529 36,000 38 484 0
2019-02-22 20:12:57 GMT 38.115391 -9.351097 36,000 38 484 0
2019-02-22 20:12:53 GMT 38.108452 -9.358083 36,000 38 484 0
2019-02-22 20:12:50 GMT 38.103195 -9.363390 36,000 38 484 0
2019-02-22 20:12:46 GMT 38.096741 -9.369877 36,000 38 484 0
2019-02-22 20:12:40 GMT 38.085133 -9.381608 36,000 38 484 0
2019-02-22 20:12:36 GMT 38.079124 -9.387698 36,000 38 485 0
2019-02-22 20:12:32 GMT 38.071518 -9.395297 36,000 38 485 0
2019-02-22 20:12:29 GMT 38.065887 -9.400966 36,000 38 485 0
2019-02-22 20:12:26 GMT 38.061668 -9.405192 36,000 38 485 0
2019-02-22 20:12:22 GMT 38.053299 -9.413647 36,000 38 485 0
2019-02-22 20:12:18 GMT 38.047794 -9.419164 36,000 38 485 0
2019-02-22 20:12:15 GMT 38.035263 -9.431763 36,000 38 485 0
2019-02-22 20:12:11 GMT 38.035263 -9.431763 36,000 38 485 0
2019-02-22 20:12:08 GMT 38.024460 -9.442574 36,000 38 486 0
2019-02-22 20:12:00 GMT 38.010590 -9.456540 36,000 38 486 0
2019-02-22 20:11:54 GMT 38.005341 -9.461796 36,000 38 486 0
2019-02-22 20:11:51 GMT 37.999237 -9.467877 36,000 38 486 0
2019-02-22 20:11:47 GMT 37.992447 -9.474693 36,000 38 486 0
2019-02-22 20:11:44 GMT 37.980194 -9.486987 36,000 38 486 0
2019-02-22 20:11:40 GMT 37.980194 -9.486987 36,000 38 486 0
2019-02-22 20:11:37 GMT 37.974518 -9.492655 36,000 38 486 0
2019-02-22 20:11:34 GMT 37.970032 -9.497155 36,000 38 486 0
2019-02-22 20:11:30 GMT 37.962650 -9.504547 36,000 38 486 0
2019-02-22 20:11:26 GMT 37.955658 -9.511530 36,000 38 486 0
2019-02-22 20:11:23 GMT 37.950596 -9.516608 36,000 38 486 0
2019-02-22 20:11:20 GMT 37.943424 -9.523833 36,000 38 486 0
2019-02-22 20:11:17 GMT 37.931305 -9.536016 36,000 38 486 0
2019-02-22 20:11:13 GMT 37.931305 -9.536016 36,000 38 486 0
2019-02-22 20:11:10 GMT 37.925781 -9.541507 36,000 38 486 0
2019-02-22 20:11:05 GMT 37.916004 -9.551358 36,000 38 486 0
2019-02-22 20:11:02 GMT 37.913773 -9.553568 36,000 38 486 0
2019-02-22 20:10:58 GMT 37.907303 -9.560016 36,000 38 486 0
2019-02-22 20:10:55 GMT 37.900955 -9.566404 36,000 38 486 0
2019-02-22 20:10:52 GMT 37.895645 -9.571722 36,000 38 486 0
2019-02-22 20:10:48 GMT 37.888309 -9.579123 36,000 38 486 0
2019-02-22 20:10:45 GMT 37.883606 -9.583840 36,000 38 486 0
2019-02-22 20:10:42 GMT 37.877647 -9.589751 36,000 38 486 0
2019-02-22 20:10:39 GMT 37.872253 -9.595155 36,000 38 486 0
2019-02-22 20:10:35 GMT 37.865356 -9.602110 36,000 38 486 0
2019-02-22 20:10:32 GMT 37.860146 -9.607305 36,000 38 486 0
2019-02-22 20:10:29 GMT 37.854126 -9.613329 36,000 38 486 0
2019-02-22 20:10:25 GMT 37.846272 -9.621277 36,000 38 486 0
2019-02-22 20:10:21 GMT 37.841522 -9.625994 36,000 38 486 0
2019-02-22 20:10:18 GMT 37.836449 -9.631069 36,000 38 486 0
2019-02-22 20:10:15 GMT 37.829453 -9.638107 36,000 38 487 0
2019-02-22 20:10:11 GMT 37.824097 -9.643425 36,000 38 486 0
2019-02-22 20:10:08 GMT 37.816849 -9.650653 36,000 38 487 0
2019-02-22 20:10:04 GMT 37.810455 -9.657099 36,000 38 487 0
2019-02-22 20:10:01 GMT 37.805958 -9.661520 36,000 38 487 0
2019-02-22 20:09:58 GMT 37.799953 -9.667551 36,000 38 486 0
2019-02-22 20:09:54 GMT 37.792694 -9.674806 36,000 38 486 0
2019-02-22 20:09:51 GMT 37.785782 -9.681702 36,000 38 486 0
2019-02-22 20:09:48 GMT 37.781204 -9.686260 36,000 38 486 0
2019-02-22 20:09:44 GMT 37.774021 -9.693404 36,000 38 486 0
2019-02-22 20:09:40 GMT 37.768890 -9.698532 36,000 38 486 0
2019-02-22 20:09:37 GMT 37.762344 -9.705018 36,000 38 486 0
2019-02-22 20:09:33 GMT 37.756004 -9.711317 36,000 38 486 0
2019-02-22 20:09:29 GMT 37.748650 -9.718601 36,000 38 486 0
2019-02-22 20:09:26 GMT 37.743988 -9.723193 36,000 38 487 0
2019-02-22 20:09:22 GMT 37.737808 -9.729387 36,000 38 487 0
2019-02-22 20:09:19 GMT 37.732265 -9.734842 36,000 38 487 0
2019-02-22 20:09:15 GMT 37.725082 -9.741951 36,000 38 487 0
2019-02-22 20:09:12 GMT 37.718765 -9.748204 36,000 38 487 0
2019-02-22 20:09:09 GMT 37.713593 -9.753288 36,000 38 487 0
2019-02-22 20:09:06 GMT 37.707314 -9.759502 36,000 38 486 0
2019-02-22 20:09:02 GMT 37.700890 -9.765890 36,000 38 486 0
2019-02-22 20:08:59 GMT 37.694046 -9.772631 36,000 38 486 0
2019-02-22 20:08:55 GMT 37.689056 -9.777598 36,000 38 486 0
2019-02-22 20:08:52 GMT 37.682053 -9.784552 36,000 38 486 0
2019-02-22 20:08:47 GMT 37.675690 -9.790864 36,000 38 486 0
2019-02-22 20:08:44 GMT 37.670471 -9.796065 36,000 38 485 0
2019-02-22 20:08:41 GMT 37.663879 -9.802551 36,000 38 485 0
2019-02-22 20:08:37 GMT 37.656921 -9.809505 36,000 38 484 0
2019-02-22 20:08:34 GMT 37.651428 -9.814882 36,000 38 484 0
2019-02-22 20:08:29 GMT 37.642273 -9.823998 36,000 38 485 0
2019-02-22 20:08:25 GMT 37.634506 -9.831689 36,000 38 485 0
2019-02-22 20:08:19 GMT 37.626450 -9.839690 36,000 38 485 0
2019-02-22 20:08:16 GMT 37.619469 -9.846556 36,000 38 484 0
2019-02-22 20:08:07 GMT 37.604481 -9.861424 36,000 38 484 0
2019-02-22 20:08:04 GMT 37.598057 -9.867753 36,000 38 484 0
2019-02-22 20:07:58 GMT 37.587486 -9.878202 36,000 38 485 0
2019-02-22 20:07:54 GMT 37.580364 -9.885247 36,000 38 484 0
2019-02-22 20:07:49 GMT 37.566788 -9.898623 36,000 38 484 0
2019-02-22 20:07:46 GMT 37.566788 -9.898623 36,000 38 484 0
2019-02-22 20:07:43 GMT 37.562534 -9.902802 36,000 38 484 0
2019-02-22 20:07:39 GMT 37.553650 -9.911538 36,000 38 484 0
2019-02-22 20:07:35 GMT 37.546600 -9.918551 36,000 38 484 0
2019-02-22 20:07:28 GMT 37.535385 -9.929595 36,000 38 484 0
2019-02-22 20:07:23 GMT 37.525131 -9.939763 36,000 38 484 0
2019-02-22 20:07:18 GMT 37.517532 -9.947302 36,000 38 483 0
2019-02-22 20:07:15 GMT 37.512268 -9.952503 36,000 38 483 0
2019-02-22 20:07:12 GMT 37.507744 -9.956957 36,000 38 483 0
2019-02-22 20:07:08 GMT 37.498764 -9.965827 36,000 38 483 0
2019-02-22 20:07:05 GMT 37.494522 -9.970033 36,000 38 483 0
2019-02-22 20:07:02 GMT 37.488556 -9.975937 36,000 38 483 0
2019-02-22 20:06:56 GMT 37.470383 -9.993877 36,000 38 483 0
2019-02-22 20:06:52 GMT 37.470383 -9.993877 36,000 38 483 0
2019-02-22 20:06:46 GMT 37.461750 -10.002335 36,000 38 483 0
2019-02-22 20:06:43 GMT 37.455505 -10.008545 36,000 38 483 0
2019-02-22 20:06:40 GMT 37.451935 -10.012110 36,000 38 483 0
2019-02-22 20:06:36 GMT 37.444290 -10.019648 36,000 38 482 0
2019-02-22 20:06:33 GMT 37.439545 -10.024308 36,000 38 482 0
2019-02-22 20:06:30 GMT 37.434265 -10.029524 36,000 38 482 0
2019-02-22 20:06:23 GMT 37.421906 -10.041679 36,000 38 482 0
2019-02-22 20:06:20 GMT 37.415428 -10.048012 36,000 38 482 0
2019-02-22 20:06:15 GMT 37.405048 -10.058222 36,000 38 482 0
2019-02-22 20:06:09 GMT 37.397369 -10.065814 36,000 38 482 0
2019-02-22 20:06:04 GMT 37.387985 -10.075047 36,000 38 481 0
2019-02-22 20:06:01 GMT 37.382469 -10.080493 36,000 38 481 0
2019-02-22 20:05:54 GMT 37.364777 -10.097838 36,000 38 481 0
2019-02-22 20:05:51 GMT 37.364777 -10.097838 36,000 38 481 0
2019-02-22 20:05:48 GMT 37.360428 -10.102104 36,000 38 481 0
2019-02-22 20:05:41 GMT 37.347244 -10.115077 36,000 38 481 0
2019-02-22 20:05:38 GMT 37.342018 -10.120140 36,000 38 481 0
2019-02-22 20:05:33 GMT 37.334702 -10.127349 36,000 38 481 0
2019-02-22 20:05:30 GMT 37.328331 -10.133574 36,000 37 480 0
2019-02-22 20:05:27 GMT 37.321426 -10.140322 36,000 37 480 0
2019-02-22 20:05:23 GMT 37.316116 -10.145523 36,000 37 480 0
2019-02-22 20:05:20 GMT 37.310486 -10.151075 36,000 37 480 0
2019-02-22 20:05:17 GMT 37.304588 -10.156801 36,000 37 480 0
2019-02-22 20:05:13 GMT 37.298073 -10.163189 36,000 37 480 0
2019-02-22 20:05:10 GMT 37.286945 -10.174056 36,000 37 480 0
2019-02-22 20:05:07 GMT 37.286945 -10.174056 36,000 37 480 0
2019-02-22 20:05:02 GMT 37.272655 -10.188088 36,000 38 481 0
2019-02-22 20:04:59 GMT 37.272655 -10.188088 36,000 38 481 0
2019-02-22 20:04:56 GMT 37.268417 -10.192215 36,000 38 481 0
2019-02-22 20:04:49 GMT 37.255848 -10.204567 36,000 38 481 0
2019-02-22 20:04:46 GMT 37.250076 -10.210180 36,000 38 481 0
2019-02-22 20:04:38 GMT 37.236111 -10.223853 36,000 38 481 0
2019-02-22 20:04:35 GMT 37.231247 -10.228622 36,000 38 481 0
2019-02-22 20:04:28 GMT 37.218887 -10.240719 36,000 38 481 -64
2019-02-22 20:04:25 GMT 37.212879 -10.246602 36,000 38 482 0
2019-02-22 20:04:20 GMT 37.205154 -10.254159 36,000 38 482 0
2019-02-22 20:04:17 GMT 37.200779 -10.258364 36,000 38 482 0
2019-02-22 20:04:13 GMT 37.193981 -10.265052 36,000 38 482 0
2019-02-22 20:04:10 GMT 37.187485 -10.271399 36,000 38 482 0
2019-02-22 20:04:07 GMT 37.181396 -10.277359 36,000 38 482 64
2019-02-22 20:04:04 GMT 37.176361 -10.282268 36,000 38 482 0
2019-02-22 20:03:59 GMT 37.168533 -10.289865 36,000 38 482 0
2019-02-22 20:03:56 GMT 37.164001 -10.294309 36,000 37 483 0
2019-02-22 20:03:52 GMT 37.156494 -10.301611 36,000 37 483 0
2019-02-22 20:03:49 GMT 37.150681 -10.307221 36,000 37 483 0
2019-02-22 20:03:46 GMT 37.143845 -10.313893 36,000 37 483 0
2019-02-22 20:03:43 GMT 37.139606 -10.318013 36,000 37 483 0
2019-02-22 20:03:36 GMT 37.127689 -10.329656 36,000 37 483 0
2019-02-22 20:03:31 GMT 37.119591 -10.337478 36,000 37 483 0
2019-02-22 20:03:26 GMT 37.108612 -10.348128 36,000 37 483 0
2019-02-22 20:03:22 GMT 37.101852 -10.354674 36,000 37 483 0
2019-02-22 20:03:18 GMT 37.094696 -10.361627 36,000 37 483 0
2019-02-22 20:03:15 GMT 37.091286 -10.364944 36,000 37 483 0
2019-02-22 20:03:10 GMT 37.081558 -10.374378 36,000 37 483 0
2019-02-22 20:03:05 GMT 37.072807 -10.382856 36,000 37 484 0
2019-02-22 20:03:00 GMT 37.064392 -10.391021 36,000 37 484 0
2019-02-22 20:02:56 GMT 37.057068 -10.398151 36,000 37 485 0
2019-02-22 20:02:46 GMT 37.040588 -10.414104 36,000 37 485 0
2019-02-22 20:02:43 GMT 37.035141 -10.419422 36,000 37 485 0
2019-02-22 20:02:40 GMT 37.026672 -10.427578 36,000 37 485 0
2019-02-22 20:02:34 GMT 37.017082 -10.436892 36,000 37 486 0
2019-02-22 20:02:28 GMT 37.008003 -10.445729 36,000 37 486 0
2019-02-22 20:02:24 GMT 37.001312 -10.452206 36,000 37 486 0
2019-02-22 20:02:21 GMT 36.995636 -10.457699 36,000 37 486 0
2019-02-22 20:02:17 GMT 36.988770 -10.464361 36,000 37 486 0
2019-02-22 20:02:13 GMT 36.979660 -10.473185 36,000 37 487 0
2019-02-22 20:02:08 GMT 36.970871 -10.481717 36,000 37 486 0
2019-02-22 20:02:04 GMT 36.964417 -10.487970 36,000 37 487 0
2019-02-22 20:02:01 GMT 36.959682 -10.492540 36,000 37 487 0
2019-02-22 20:01:55 GMT 36.948486 -10.503397 36,000 37 487 0
2019-02-22 20:01:52 GMT 36.941853 -10.509796 36,000 37 487 0
2019-02-22 20:01:47 GMT 36.933521 -10.517857 36,000 37 487 0
2019-02-22 20:01:43 GMT 36.925980 -10.525141 36,000 37 487 0
2019-02-22 20:01:35 GMT 36.912945 -10.537799 36,000 37 488 0
2019-02-22 20:01:31 GMT 36.905228 -10.545239 36,000 37 488 0
2019-02-22 20:01:26 GMT 36.897957 -10.552249 36,000 37 488 0
2019-02-22 20:01:20 GMT 36.886177 -10.563653 36,000 37 488 0
2019-02-22 20:01:16 GMT 36.880188 -10.569432 36,000 37 488 0
2019-02-22 20:01:13 GMT 36.866638 -10.582581 36,000 37 488 0
2019-02-22 20:01:10 GMT 36.866638 -10.582581 36,000 37 489 0
2019-02-22 20:01:06 GMT 36.861008 -10.588015 36,000 37 489 0
2019-02-22 20:01:01 GMT 36.852768 -10.596021 36,000 37 489 0
2019-02-22 20:00:55 GMT 36.841579 -10.606774 36,000 37 489 0
2019-02-22 20:00:51 GMT 36.833359 -10.614738 36,000 37 490 0
2019-02-22 20:00:44 GMT 36.821823 -10.625839 36,000 37 491 0
2019-02-22 20:00:41 GMT 36.815918 -10.631561 36,000 37 491 0
2019-02-22 20:00:30 GMT 36.797264 -10.649492 36,000 37 491 0
2019-02-22 20:00:20 GMT 36.777431 -10.668601 36,000 37 491 0
2019-02-22 20:00:17 GMT 36.772247 -10.673618 36,000 37 491 0
2019-02-22 20:00:10 GMT 36.759842 -10.685577 36,000 37 491 0
2019-02-22 20:00:05 GMT 36.752609 -10.692558 36,000 37 491 0
2019-02-22 20:00:02 GMT 36.747437 -10.697536 36,000 37 491 0
2019-02-22 19:59:58 GMT 36.740295 -10.704346 36,000 37 491 0
2019-02-22 19:59:49 GMT 36.721848 -10.722084 36,000 37 491 0
2019-02-22 19:59:38 GMT 36.703133 -10.740012 36,000 37 491 0
2019-02-22 19:59:28 GMT 36.684174 -10.758190 36,000 37 491 0
2019-02-22 19:59:18 GMT 36.666046 -10.775528 36,000 37 492 0
2019-02-22 19:59:09 GMT 36.650940 -10.790005 36,000 37 492 0
2019-02-22 19:59:06 GMT 36.647179 -10.793600 36,000 37 492 0
2019-02-22 19:59:02 GMT 36.637985 -10.802364 36,000 37 492 0
2019-02-22 19:58:57 GMT 36.628044 -10.811891 36,000 37 492 0
2019-02-22 19:58:50 GMT 36.617851 -10.821650 36,000 37 492 0
2019-02-22 19:58:46 GMT 36.610123 -10.829013 36,000 37 492 0
2019-02-22 19:58:41 GMT 36.598579 -10.840058 36,000 37 492 0
2019-02-22 19:58:38 GMT 36.594910 -10.843620 36,000 37 492 0
2019-02-22 19:58:35 GMT 36.590286 -10.848026 36,000 37 492 0
2019-02-22 19:58:32 GMT 36.584061 -10.853920 36,000 37 492 0
2019-02-22 19:58:27 GMT 36.569962 -10.867424 36,000 37 492 0
2019-02-22 19:58:20 GMT 36.562592 -10.874462 36,000 37 492 0
2019-02-22 19:58:16 GMT 36.553421 -10.883244 36,000 37 492 0
2019-02-22 19:58:06 GMT 36.534897 -10.900898 36,000 37 492 0
2019-02-22 19:58:01 GMT 36.526108 -10.909252 36,000 37 497 0
2019-02-22 19:57:55 GMT 36.518696 -10.916378 36,000 37 492 0
2019-02-22 19:57:43 GMT 36.496582 -10.937474 36,000 37 492 0
2019-02-22 19:57:34 GMT 36.479828 -10.953426 36,000 37 493 0
2019-02-22 19:57:24 GMT 36.460270 -10.972069 36,000 37 497 0
2019-02-22 19:57:14 GMT 36.443390 -10.988159 36,000 37 495 0
2019-02-22 19:57:04 GMT 36.424892 -11.005730 36,000 37 496 0
2019-02-22 19:56:54 GMT 36.406448 -11.023350 36,000 37 497 0
2019-02-22 19:56:42 GMT 36.385757 -11.043034 36,000 37 498 0
2019-02-22 19:56:33 GMT 36.361301 -11.066271 36,000 37 500 0
2019-02-22 19:56:23 GMT 36.349991 -11.076907 36,000 37 500 0
2019-02-22 19:56:12 GMT 36.330643 -11.095219 36,000 37 500 0
2019-02-22 19:56:01 GMT 36.309349 -11.115359 36,000 37 500 0
2019-02-22 19:55:47 GMT 36.284271 -11.139050 36,000 37 500 0
2019-02-22 19:55:28 GMT 36.249390 -11.172044 36,000 37 497 0
2019-02-22 19:54:52 GMT 36.181686 -11.235981 36,000 37 497 0
2019-02-22 19:54:47 GMT 36.173813 -11.243420 36,000 37 496 0
2019-02-22 19:53:56 GMT 36.079754 -11.331696 36,000 37 493 0
2019-02-22 19:53:48 GMT 36.066696 -11.343956 36,000 37 495 0
2019-02-22 19:52:10 GMT 35.886017 -11.514072 36,000 37 493 0
2019-02-22 19:51:59 GMT 35.867477 -11.531754 36,000 37 493 0
2019-02-22 19:51:21 GMT 35.799881 -11.595134 36,000 36 492 0
2019-02-22 19:50:35 GMT 35.713715 -11.671200 36,000 35 498 0
2019-02-22 19:50:29 GMT 35.703461 -11.680241 36,000 35 498 0
2019-02-22 19:48:56 GMT 35.529007 -11.832561 36,000 35 498 0
2019-02-22 19:48:47 GMT 35.511612 -11.847725 36,000 35 498 0
2019-02-22 19:48:36 GMT 35.490875 -11.865864 36,000 35 499 0
2019-02-22 19:48:26 GMT 35.472248 -11.882064 36,000 35 500 0
2019-02-22 19:48:13 GMT 35.448875 -11.902459 36,000 35 501 -64
2019-02-22 19:48:05 GMT 35.433426 -11.915932 36,000 35 501 0
2019-02-22 19:47:54 GMT 35.413124 -11.933607 36,000 35 501 0
2019-02-22 19:47:44 GMT 35.394012 -11.950264 36,000 35 501 0
We lost coverage of the aircraft here for a total of 8 minutes
2019-02-22 19:39:35 GMT 34.450985 -12.757988 36,000 34 506 0
2019-02-22 19:37:24 GMT 34.200302 -12.968688 36,025 34 507 128
2019-02-22 19:36:24 GMT 34.086685 -13.063697 36,000 34 509 0
2019-02-22 19:36:21 GMT 34.079449 -13.069725 36,000 34 510 0
2019-02-22 19:36:09 GMT 34.056702 -13.088697 36,000 34 510 64
2019-02-22 19:35:48 GMT 34.013763 -13.124485 36,000 34 510 64
2019-02-22 19:35:39 GMT 33.998795 -13.136902 36,000 34 510 -64
2019-02-22 19:35:24 GMT 33.968472 -13.162193 36,000 34 510 -64
2019-02-22 19:34:57 GMT 33.917446 -13.204651 36,000 34 512 0
2019-02-22 19:34:02 GMT 33.809143 -13.294578 36,000 34 514 0
2019-02-22 19:33:53 GMT 33.790035 -13.310394 36,000 34 514 0
2019-02-22 19:33:44 GMT 33.775131 -13.322717 36,000 34 514 0
2019-02-22 19:32:09 GMT 33.587440 -13.477707 36,000 34 516 0
2019-02-22 19:31:34 GMT 33.517937 -13.534876 36,000 34 516 0
2019-02-22 19:31:23 GMT 33.496170 -13.552844 36,000 34 516 0
2019-02-22 19:31:19 GMT 33.487911 -13.559651 36,000 34 516 0
2019-02-22 19:31:06 GMT 33.463165 -13.580035 36,000 34 516 0
2019-02-22 19:30:27 GMT 33.385494 -13.643674 36,000 34 516 0
2019-02-22 19:30:17 GMT 33.364452 -13.660826 36,000 34 516 0
2019-02-22 19:30:06 GMT 33.343643 -13.677814 36,000 34 515 0
2019-02-22 19:29:30 GMT 33.274475 -13.734119 36,000 34 515 0
2019-02-22 19:29:23 GMT 33.258865 -13.746863 36,000 34 515 0
2019-02-22 19:29:12 GMT 33.237461 -13.764244 36,000 34 513 0
2019-02-22 19:27:27 GMT 33.032639 -13.930774 36,000 34 511 0
2019-02-22 19:27:19 GMT 33.017166 -13.943353 36,000 34 512 64
2019-02-22 19:27:08 GMT 32.994919 -13.961371 36,000 34 511 0
2019-02-22 19:26:58 GMT 32.975929 -13.976739 36,000 34 510 0
2019-02-22 19:26:26 GMT 32.914856 -14.026025 36,000 34 510 0
2019-02-22 19:26:18 GMT 32.895439 -14.041704 36,000 34 511 0
2019-02-22 19:25:14 GMT 32.772823 -14.140694 36,000 34 511 0
2019-02-22 19:24:01 GMT 32.628479 -14.256409 36,000 34 514 0
2019-02-22 19:23:42 GMT 32.590569 -14.286711 36,000 34 514 0
2019-02-22 19:23:36 GMT 32.577850 -14.296893 36,000 34 514 0
2019-02-22 19:23:27 GMT 32.562637 -14.309076 36,000 34 514 0
2019-02-22 19:23:15 GMT 32.538059 -14.328806 36,000 34 515 64
2019-02-22 19:23:07 GMT 32.524281 -14.339793 36,000 34 516 0
2019-02-22 19:21:46 GMT 32.362244 -14.469049 36,000 33 517 0
2019-02-22 19:21:06 GMT 32.279663 -14.534692 36,000 33 517 0
2019-02-22 19:20:54 GMT 32.258373 -14.551616 36,000 33 517 0
2019-02-22 19:17:55 GMT 31.899857 -14.834290 36,000 33 516 0
2019-02-22 19:17:26 GMT 31.846060 -14.876665 36,000 33 514 0
2019-02-22 19:17:14 GMT 31.818455 -14.898358 36,000 33 514 0
2019-02-22 19:17:04 GMT 31.802628 -14.910754 36,000 33 514 0
2019-02-22 19:16:47 GMT 31.766190 -14.939252 36,000 33 514 0
2019-02-22 19:16:38 GMT 31.750954 -14.951239 36,000 33 514 0
2019-02-22 19:16:06 GMT 31.687225 -15.001023 36,000 33 513 0
2019-02-22 19:16:02 GMT 31.678844 -15.007599 36,000 33 513 0
2019-02-22 19:15:29 GMT 31.615114 -15.057367 36,000 33 513 0
2019-02-22 19:15:21 GMT 31.597229 -15.071357 36,000 33 514 0
2019-02-22 19:15:12 GMT 31.581757 -15.083367 36,000 33 513 0
2019-02-22 19:15:06 GMT 31.570084 -15.092414 36,000 33 513 0
2019-02-22 19:14:45 GMT 31.528294 -15.124823 36,000 33 512 0
2019-02-22 19:14:37 GMT 31.512497 -15.137114 36,000 33 513 0
2019-02-22 19:14:30 GMT 31.498640 -15.147894 36,000 33 512 0
2019-02-22 19:14:24 GMT 31.484573 -15.158817 36,000 33 513 0
2019-02-22 19:14:12 GMT 31.461823 -15.176481 36,000 33 513 0
2019-02-22 19:13:36 GMT 31.391106 -15.231335 36,000 33 513 0
2019-02-22 19:13:33 GMT 31.369692 -15.247870 36,000 33 513 0
2019-02-22 19:13:22 GMT 31.343491 -15.267980 36,000 28 512 0
2019-02-22 19:13:12 GMT 31.343491 -15.267980 36,000 32 512 0
2019-02-22 19:13:01 GMT 31.320578 -15.283685 36,000 28 511 0
2019-02-22 19:12:54 GMT 31.304993 -15.293184 36,000 26 511 0
2019-02-22 19:12:49 GMT 31.295563 -15.298462 36,000 25 510 0
2019-02-22 19:12:45 GMT 31.286545 -15.303255 36,000 22 510 0
2019-02-22 19:12:41 GMT 31.277435 -15.307779 36,000 17 506 0
2019-02-22 19:12:27 GMT 31.247816 -15.320599 36,000 17 506 0
2019-02-22 19:12:21 GMT 31.232986 -15.326089 36,000 17 506 0
2019-02-22 19:12:09 GMT 31.207596 -15.335211 36,000 17 506 0
2019-02-22 19:11:50 GMT 31.164093 -15.350862 36,000 17 506 0
2019-02-22 19:11:39 GMT 31.139397 -15.359766 36,000 17 506 0
2019-02-22 19:11:27 GMT 31.110722 -15.370148 36,000 17 506 0
2019-02-22 19:11:18 GMT 31.092333 -15.376740 36,000 17 507 0
2019-02-22 19:11:07 GMT 31.069010 -15.385144 36,000 17 507 0
2019-02-22 19:10:56 GMT 31.042755 -15.394537 36,000 17 506 0
2019-02-22 19:10:40 GMT 31.006851 -15.407410 36,000 17 507 0
2019-02-22 19:10:36 GMT 30.998932 -15.410264 36,000 17 507 0
2019-02-22 19:10:26 GMT 30.975449 -15.418665 36,000 17 507 0
2019-02-22 19:10:14 GMT 30.949356 -15.428036 36,000 17 507 0
2019-02-22 19:10:02 GMT 30.922184 -15.437769 36,000 17 507 0
2019-02-22 19:09:54 GMT 30.903854 -15.444354 36,000 17 507 0
2019-02-22 19:09:44 GMT 30.882475 -15.452051 36,000 17 507 0
2019-02-22 19:09:33 GMT 30.857254 -15.461049 36,000 17 507 0
2019-02-22 19:09:23 GMT 30.834713 -15.469135 36,000 17 508 0
2019-02-22 19:09:12 GMT 30.810471 -15.477798 36,000 17 508 -64
2019-02-22 19:09:02 GMT 30.788206 -15.485779 36,000 17 508 64
2019-02-22 19:08:52 GMT 30.765350 -15.493909 36,000 17 509 0
2019-02-22 19:08:41 GMT 30.740398 -15.502753 36,000 17 509 0
2019-02-22 19:08:31 GMT 30.716330 -15.511267 36,000 17 509 0
2019-02-22 19:08:20 GMT 30.693474 -15.519397 36,000 17 509 0
2019-02-22 19:08:09 GMT 30.667648 -15.528582 36,000 17 509 0
2019-02-22 19:07:59 GMT 30.645355 -15.536499 36,000 17 509 0
2019-02-22 19:07:50 GMT 30.623783 -15.544116 36,000 17 509 0
2019-02-22 19:07:39 GMT 30.600973 -15.552191 36,000 17 509 -64
2019-02-22 19:07:29 GMT 30.577885 -15.560321 36,000 17 509 0
2019-02-22 19:07:19 GMT 30.554562 -15.568616 36,000 17 509 0
2019-02-22 19:07:08 GMT 30.529724 -15.577428 36,000 17 509 0
2019-02-22 19:06:58 GMT 30.507404 -15.585370 36,000 17 510 0
2019-02-22 19:06:47 GMT 30.483307 -15.593908 36,000 16 510 0
2019-02-22 19:06:37 GMT 30.460876 -15.601825 36,000 16 510 0
2019-02-22 19:06:27 GMT 30.437714 -15.610010 36,000 16 510 0
2019-02-22 19:06:15 GMT 30.410156 -15.619757 36,000 17 509 0
2019-02-22 19:06:06 GMT 30.389557 -15.627029 36,000 17 509 0
2019-02-22 19:05:56 GMT 30.366304 -15.635248 36,000 17 509 0
2019-02-22 19:05:45 GMT 30.342936 -15.643542 36,000 17 509 0
2019-02-22 19:05:34 GMT 30.318604 -15.652125 36,000 17 509 0
2019-02-22 19:05:23 GMT 30.293636 -15.660901 36,000 16 508 0
2019-02-22 19:05:14 GMT 30.272781 -15.668227 36,000 16 508 0
2019-02-22 19:05:03 GMT 30.247330 -15.677167 36,000 16 507 0
2019-02-22 19:04:52 GMT 30.223528 -15.685565 36,000 16 507 0
2019-02-22 19:04:40 GMT 30.195271 -15.695508 36,025 17 506 -128
2019-02-22 19:04:32 GMT 30.179077 -15.701186 35,975 16 503 576
2019-02-22 19:04:20 GMT 30.152298 -15.710611 35,850 16 502 576
2019-02-22 19:04:10 GMT 30.130051 -15.718420 35,750 17 502 640
2019-02-22 19:04:00 GMT 30.106636 -15.726599 35,650 16 500 704
2019-02-22 19:03:49 GMT 30.083771 -15.734630 35,525 16 500 832
2019-02-22 19:03:40 GMT 30.062923 -15.741925 35,375 16 499 896
2019-02-22 19:03:28 GMT 30.036295 -15.751208 35,200 16 499 768
2019-02-22 19:03:19 GMT 30.016617 -15.758164 35,075 16 499 960
2019-02-22 19:03:09 GMT 29.994678 -15.765491 34,925 14 498 960
2019-02-22 19:02:58 GMT 29.970284 -15.771973 34,750 11 496 960
2019-02-22 19:02:48 GMT 29.947056 -15.776807 34,575 10 495 1024
2019-02-22 19:02:38 GMT 29.924698 -15.781376 34,425 10 495 1024
2019-02-22 19:02:28 GMT 29.900595 -15.786276 34,225 10 495 960
2019-02-22 19:02:17 GMT 29.877041 -15.791069 34,050 9 495 1152
2019-02-22 19:02:07 GMT 29.853996 -15.795755 33,850 10 494 1152
2019-02-22 19:01:57 GMT 29.830814 -15.800440 33,650 10 494 1216
2019-02-22 19:01:49 GMT 29.810715 -15.804572 33,475 10 495 1280
2019-02-22 19:01:46 GMT 29.807281 -15.805259 33,450 10 495 1216
2019-02-22 19:01:36 GMT 29.783752 -15.810066 33,225 10 495 1280
2019-02-22 19:01:25 GMT 29.758331 -15.815196 32,975 10 496 1344
2019-02-22 19:01:15 GMT 29.736359 -15.819720 32,750 10 496 1472
2019-02-22 19:01:04 GMT 29.712524 -15.824567 32,475 10 497 1408
2019-02-22 19:00:54 GMT 29.689667 -15.829252 32,225 10 498 1536
2019-02-22 19:00:44 GMT 29.665600 -15.834153 31,950 10 500 1728
2019-02-22 19:00:36 GMT 29.645050 -15.838377 31,675 10 501 1728
2019-02-22 19:00:33 GMT 29.641525 -15.839063 31,650 10 502 1728
2019-02-22 19:00:23 GMT 29.617744 -15.843955 31,350 10 503 1856
2019-02-22 19:00:13 GMT 29.594282 -15.848694 31,025 10 506 1920
2019-02-22 19:00:02 GMT 29.570539 -15.853541 30,700 10 509 1728
2019-02-22 18:59:52 GMT 29.546082 -15.858501 30,450 10 510 1344
2019-02-22 18:59:41 GMT 29.521454 -15.863518 30,225 10 509 1280
2019-02-22 18:59:31 GMT 29.497330 -15.868378 29,750 10 503 1024
2019-02-22 18:59:20 GMT 29.472565 -15.873395 29,800 10 508 1216
2019-02-22 18:59:10 GMT 29.449411 -15.878098 29,625 10 506 1024
2019-02-22 18:59:00 GMT 29.424957 -15.883061 29,425 10 504 1152
2019-02-22 18:58:50 GMT 29.401749 -15.887762 29,250 10 503 1024
2019-02-22 18:58:39 GMT 29.378185 -15.892531 29,075 10 500 1088
2019-02-22 18:58:29 GMT 29.354258 -15.897325 28,875 9 498 1088
2019-02-22 18:58:18 GMT 29.330517 -15.902118 28,675 9 496 1216
2019-02-22 18:58:08 GMT 29.306580 -15.906935 28,450 9 495 1216
2019-02-22 18:57:58 GMT 29.283360 -15.911596 28,200 10 493 1728
2019-02-22 18:57:47 GMT 29.259478 -15.916443 27,900 10 494 1856
2019-02-22 18:57:36 GMT 29.234802 -15.921461 27,525 10 495 2112
2019-02-22 18:57:25 GMT 29.209108 -15.926675 27,125 10 497 2176
2019-02-22 18:57:15 GMT 29.186966 -15.931127 26,775 10 499 2048
2019-02-22 18:57:02 GMT 29.155806 -15.937338 26,450 10 500 1664
2019-02-22 18:56:54 GMT 29.137573 -15.941004 26,175 9 499 1408
2019-02-22 18:56:43 GMT 29.112839 -15.945955 25,925 9 497 1344
2019-02-22 18:56:34 GMT 29.068987 -15.954733 24,925 9 496 1408
2019-02-22 18:56:23 GMT 29.045609 -15.959437 24,925 10 487 1408
2019-02-22 18:56:13 GMT 29.045609 -15.959437 25,275 10 492 1408
2019-02-22 18:56:03 GMT 29.022806 -15.964050 25,050 10 489 1216
2019-02-22 18:55:52 GMT 28.999557 -15.968681 24,400 10 483 1600
2019-02-22 18:55:41 GMT 28.975138 -15.973583 24,550 9 484 1536
2019-02-22 18:55:31 GMT 28.952791 -15.978052 24,300 9 482 1408
2019-02-22 18:55:21 GMT 28.930634 -15.982469 24,050 9 480 1792
2019-02-22 18:55:10 GMT 28.907217 -15.987100 23,750 9 478 1536
2019-02-22 18:55:00 GMT 28.862000 -15.996147 23,300 10 474 1664
2019-02-22 18:54:49 GMT 28.862000 -15.996147 23,125 10 476 1856
2019-02-22 18:54:37 GMT 28.833389 -16.001850 22,700 10 474 1664
2019-02-22 18:54:29 GMT 28.817184 -16.005140 22,475 10 473 1920
2019-02-22 18:54:16 GMT 28.787796 -16.011042 22,050 10 472 1664
2019-02-22 18:54:06 GMT 28.764627 -16.015697 21,750 10 469 1664
2019-02-22 18:53:57 GMT 28.748241 -16.018982 21,475 10 466 1536
2019-02-22 18:53:52 GMT 28.737022 -16.021191 21,425 9 465 1536
2019-02-22 18:53:45 GMT 28.718307 -16.024879 21,200 9 461 1472
2019-02-22 18:53:36 GMT 28.704712 -16.027575 21,000 9 458 1472
2019-02-22 18:53:33 GMT 28.696609 -16.029158 20,925 9 457 1664
2019-02-22 18:53:26 GMT 28.682922 -16.031853 20,725 9 455 1984
2019-02-22 18:53:23 GMT 28.674223 -16.033577 20,600 9 454 1728
2019-02-22 18:53:15 GMT 28.660212 -16.036324 20,425 9 451 1472
2019-02-22 18:53:12 GMT 28.654678 -16.037397 20,350 9 449 1664
2019-02-22 18:53:03 GMT 28.633677 -16.041601 20,025 10 447 2176
2019-02-22 18:52:54 GMT 28.617874 -16.044741 19,750 10 445 2048
2019-02-22 18:52:51 GMT 28.609360 -16.046482 19,600 10 444 2112
2019-02-22 18:52:44 GMT 28.596901 -16.048979 19,375 9 443 2304
2019-02-22 18:52:40 GMT 28.589127 -16.050497 19,225 9 443 2176
2019-02-22 18:52:31 GMT 28.566874 -16.055012 18,875 10 440 1792
2019-02-22 18:52:23 GMT 28.554398 -16.057487 18,650 10 438 2048
2019-02-22 18:52:20 GMT 28.547276 -16.058943 18,525 10 436 2432
2019-02-22 18:52:13 GMT 28.534147 -16.061581 18,275 10 436 2496
2019-02-22 18:52:09 GMT 28.524582 -16.063543 18,125 10 436 2368
2019-02-22 18:52:02 GMT 28.513229 -16.065815 17,850 10 434 2304
2019-02-22 18:51:58 GMT 28.504681 -16.067558 17,675 10 433 2432
2019-02-22 18:51:51 GMT 28.492218 -16.070093 17,425 10 432 2432
2019-02-22 18:51:47 GMT 28.479868 -16.072620 17,175 10 431 2304
2019-02-22 18:51:42 GMT 28.472580 -16.074055 17,050 10 430 2304
2019-02-22 18:51:37 GMT 28.463608 -16.075903 16,875 10 429 2240
2019-02-22 18:51:31 GMT 28.451424 -16.078329 16,625 10 428 2368
2019-02-22 18:51:26 GMT 28.439484 -16.080763 16,375 10 427 2368
2019-02-22 18:51:21 GMT 28.431732 -16.082315 16,225 10 426 2240
2019-02-22 18:51:15 GMT 28.420002 -16.084684 16,000 10 424 2304
2019-02-22 18:51:10 GMT 28.411715 -16.086353 15,825 9 422 2304
2019-02-22 18:51:06 GMT 28.400078 -16.088671 15,600 9 420 2048
2019-02-22 18:51:00 GMT 28.391279 -16.090393 15,475 9 419 1984
2019-02-22 18:50:55 GMT 28.380526 -16.092493 15,275 9 417 2048
2019-02-22 18:50:49 GMT 28.371368 -16.094231 15,100 9 413 2176
2019-02-22 18:50:45 GMT 28.361069 -16.096237 14,900 9 411 2368
2019-02-22 18:50:39 GMT 28.352175 -16.097986 14,725 9 409 2176
2019-02-22 18:50:33 GMT 28.339931 -16.100302 14,525 9 406 1664
2019-02-22 18:50:29 GMT 28.332577 -16.101704 14,400 9 404 1536
2019-02-22 18:50:18 GMT 28.313442 -16.105148 14,025 8 399 2624
2019-02-22 18:50:13 GMT 28.300552 -16.107330 13,725 8 397 2688
2019-02-22 18:50:08 GMT 28.294079 -16.108435 13,550 8 396 2880
2019-02-22 18:50:02 GMT 28.283232 -16.110159 13,275 8 394 2496
2019-02-22 18:49:57 GMT 28.275238 -16.111450 13,100 8 393 2176
2019-02-22 18:49:52 GMT 28.264435 -16.113140 12,875 8 389 2432
2019-02-22 18:49:47 GMT 28.257294 -16.114302 12,725 8 389 2368
2019-02-22 18:49:40 GMT 28.243336 -16.116674 12,425 9 385 2304
2019-02-22 18:49:36 GMT 28.237005 -16.117859 12,275 9 384 2624
2019-02-22 18:49:31 GMT 28.226257 -16.120060 11,975 11 383 2816
2019-02-22 18:49:25 GMT 28.218897 -16.122061 11,825 16 382 2112
2019-02-22 18:49:19 GMT 28.207489 -16.127031 11,650 27 378 1280
2019-02-22 18:49:15 GMT 28.202648 -16.130192 11,575 32 375 832
2019-02-22 18:49:09 GMT 28.191055 -16.140869 11,450 44 368 1024
2019-02-22 18:49:05 GMT 28.189362 -16.142929 11,425 48 364 1152
2019-02-22 18:48:58 GMT 28.182358 -16.154076 11,300 63 354 896
2019-02-22 18:48:55 GMT 28.179977 -16.159304 11,250 66 352 896
2019-02-22 18:48:49 GMT 28.175812 -16.171137 11,150 70 343 960
2019-02-22 18:48:44 GMT 28.174021 -16.176777 11,100 70 340 960
2019-02-22 18:48:37 GMT 28.169861 -16.189674 10,950 69 332 1152
2019-02-22 18:48:34 GMT 28.168533 -16.193743 10,900 69 329 960
2019-02-22 18:48:27 GMT 28.164551 -16.205996 10,800 69 318 960
2019-02-22 18:48:24 GMT 28.163265 -16.209896 10,750 69 315 1408
2019-02-22 18:48:17 GMT 28.158920 -16.223057 10,450 69 311 2112
2019-02-22 18:48:13 GMT 28.157776 -16.226437 10,375 69 309 2176
2019-02-22 18:48:06 GMT 28.152512 -16.242388 9,950 69 307 2304
2019-02-22 18:47:56 GMT 28.147392 -16.257935 9,575 69 303 2624
2019-02-22 18:47:42 GMT 28.142532 -16.272442 9,150 69 301 2304
2019-02-22 18:47:35 GMT 28.137497 -16.287548 8,800 69 294 1856
2019-02-22 18:47:24 GMT 28.132959 -16.301071 8,575 69 284 1216
2019-02-22 18:47:21 GMT 28.132141 -16.303553 8,525 70 278 1024
2019-02-22 18:47:11 GMT 28.127975 -16.316545 8,400 69 257 2496
2019-02-22 18:46:51 GMT 28.119600 -16.342272 7,675 69 257 2368
2019-02-22 18:46:42 GMT 28.115021 -16.356213 7,225 69 253 2496
2019-02-22 18:46:30 GMT 28.110847 -16.369251 6,800 70 250 2368

Making use of Plane Finder data

You are free to use the raw flight data, aircraft information and images provided in this report for your own purposes provided the data is correctly attributed to Plane Finder. We ask that you please credit Plane Finder and link to planefinder.net in close proximity to the content.

Optionally one of the following logos (no smaller then 150x24px) can be used and must link to planefinder.net

Embedding the Plane Finder map

You are welcome to embed the Plane Finder playback map on your website to offer visitors a more interactive experience. We suggest using the following HTML code:

<iframe src="//planefinder.net/data/report/FR5553-EI-GXJ-7700-squawk-2019-02-22/map" width="800" height="600" seamless="seamless"></iframe>

Where our data comes from

Plane Finder has a global network of data feeds and antenna radars that receive data broadcast directly from aircraft. The primary technologies used are ADS-B and MLAT. We also show feeds from the FAA and a FLARM glider feed.

Click here to find out more about the Plane Finder network.

How we collect our data